<?xml version="1.0" encoding="UTF-8" standalone="no" ?>
<gpx xmlns="http://www.topografix.com/GPX/1/1" xmlns:xsi="http://www.w3.org/2001/XMLSchema-instance" xsi:schemaLocation="http://www.topografix.com/GPX/1/1 http://www.topografix.com/GPX/1/1/gpx.xsd" version="1.1" creator="VisuGPX - https://www.visugpx.com">
  <metadata>
    <name>DT 04 - Saint Laurent d'Olt</name>
  </metadata>
  <trk>
    <name><![CDATA[Move 002]]></name>
    <trkseg>
      <trkpt lat="44.44611" lon="3.11083">
        <ele>565.70001220703</ele>
        <time>2020-02-20T08:15:28Z</time>
      </trkpt>
      <trkpt lat="44.44622" lon="3.11089">
        <ele>540.92745035294</ele>
        <time>2020-02-20T08:16:12Z</time>
      </trkpt>
      <trkpt lat="44.44632" lon="3.11092">
        <ele>540</ele>
        <time>2020-02-20T08:16:17Z</time>
      </trkpt>
      <trkpt lat="44.44641" lon="3.11099">
        <ele>540</ele>
        <time>2020-02-20T08:16:33Z</time>
      </trkpt>
      <trkpt lat="44.44651" lon="3.11107">
        <ele>539.1520646264</ele>
        <time>2020-02-20T08:16:45Z</time>
      </trkpt>
      <trkpt lat="44.44659" lon="3.11114">
        <ele>537.72369737619</ele>
        <time>2020-02-20T08:16:53Z</time>
      </trkpt>
      <trkpt lat="44.44668" lon="3.11126">
        <ele>536.16947509835</ele>
        <time>2020-02-20T08:18:25Z</time>
      </trkpt>
      <trkpt lat="44.44678" lon="3.11126">
        <ele>535.46403222439</ele>
        <time>2020-02-20T08:18:32Z</time>
      </trkpt>
      <trkpt lat="44.44688" lon="3.1113">
        <ele>535</ele>
        <time>2020-02-20T08:18:47Z</time>
      </trkpt>
      <trkpt lat="44.44697" lon="3.11133">
        <ele>535</ele>
        <time>2020-02-20T08:18:53Z</time>
      </trkpt>
      <trkpt lat="44.44706" lon="3.11137">
        <ele>535</ele>
        <time>2020-02-20T08:18:58Z</time>
      </trkpt>
      <trkpt lat="44.44715" lon="3.11144">
        <ele>535</ele>
        <time>2020-02-20T08:19:05Z</time>
      </trkpt>
      <trkpt lat="44.44723" lon="3.11148">
        <ele>533.92092062593</ele>
        <time>2020-02-20T08:19:12Z</time>
      </trkpt>
      <trkpt lat="44.44734" lon="3.11148">
        <ele>532.31382464135</ele>
        <time>2020-02-20T08:19:20Z</time>
      </trkpt>
      <trkpt lat="44.44744" lon="3.11151">
        <ele>530.90392219608</ele>
        <time>2020-02-20T08:19:27Z</time>
      </trkpt>
      <trkpt lat="44.44758" lon="3.11156">
        <ele>528.94153290323</ele>
        <time>2020-02-20T08:19:37Z</time>
      </trkpt>
      <trkpt lat="44.44768" lon="3.11166">
        <ele>527.32862967742</ele>
        <time>2020-02-20T08:19:45Z</time>
      </trkpt>
      <trkpt lat="44.44772" lon="3.1118">
        <ele>525</ele>
        <time>2020-02-20T08:23:52Z</time>
      </trkpt>
      <trkpt lat="44.44763" lon="3.11186">
        <ele>524.69070000107</ele>
        <time>2020-02-20T08:24:00Z</time>
      </trkpt>
      <trkpt lat="44.44755" lon="3.11191">
        <ele>521</ele>
        <time>2020-02-20T08:25:01Z</time>
      </trkpt>
      <trkpt lat="44.44743" lon="3.1119">
        <ele>520.15799787211</ele>
        <time>2020-02-20T08:25:11Z</time>
      </trkpt>
      <trkpt lat="44.44734" lon="3.11191">
        <ele>518.98960433124</ele>
        <time>2020-02-20T08:25:17Z</time>
      </trkpt>
      <trkpt lat="44.44724" lon="3.11187">
        <ele>518.15800405289</ele>
        <time>2020-02-20T08:25:25Z</time>
      </trkpt>
      <trkpt lat="44.44713" lon="3.11186">
        <ele>516.08849497376</ele>
        <time>2020-02-20T08:25:33Z</time>
      </trkpt>
      <trkpt lat="44.44721" lon="3.11195">
        <ele>513.39899452495</ele>
        <time>2020-02-20T08:25:42Z</time>
      </trkpt>
      <trkpt lat="44.44736" lon="3.11203">
        <ele>510.93545217543</ele>
        <time>2020-02-20T08:25:52Z</time>
      </trkpt>
      <trkpt lat="44.44743" lon="3.11211">
        <ele>509.47984</ele>
        <time>2020-02-20T08:25:58Z</time>
      </trkpt>
      <trkpt lat="44.4475" lon="3.11221">
        <ele>506.25403354839</ele>
        <time>2020-02-20T08:26:06Z</time>
      </trkpt>
      <trkpt lat="44.44759" lon="3.11231">
        <ele>504.51859217874</ele>
        <time>2020-02-20T08:26:14Z</time>
      </trkpt>
      <trkpt lat="44.44766" lon="3.11239">
        <ele>503.32610732576</ele>
        <time>2020-02-20T08:26:20Z</time>
      </trkpt>
      <trkpt lat="44.44775" lon="3.11245">
        <ele>501.97272696713</ele>
        <time>2020-02-20T08:26:27Z</time>
      </trkpt>
      <trkpt lat="44.44786" lon="3.11249">
        <ele>501.26565671715</ele>
        <time>2020-02-20T08:26:34Z</time>
      </trkpt>
      <trkpt lat="44.44795" lon="3.1125">
        <ele>498.76440874076</ele>
        <time>2020-02-20T08:26:44Z</time>
      </trkpt>
      <trkpt lat="44.44807" lon="3.11252">
        <ele>495.15884025058</ele>
        <time>2020-02-20T08:26:56Z</time>
      </trkpt>
      <trkpt lat="44.44817" lon="3.11254">
        <ele>494</ele>
        <time>2020-02-20T08:29:25Z</time>
      </trkpt>
      <trkpt lat="44.4482" lon="3.11273">
        <ele>494.27952755905</ele>
        <time>2020-02-20T08:30:04Z</time>
      </trkpt>
      <trkpt lat="44.44818" lon="3.1126">
        <ele>494.85559899059</ele>
        <time>2020-02-20T08:30:48Z</time>
      </trkpt>
      <trkpt lat="44.4482" lon="3.11275">
        <ele>494</ele>
        <time>2020-02-20T08:30:59Z</time>
      </trkpt>
      <trkpt lat="44.44822" lon="3.11288">
        <ele>494</ele>
        <time>2020-02-20T08:31:05Z</time>
      </trkpt>
      <trkpt lat="44.44823" lon="3.11303">
        <ele>494</ele>
        <time>2020-02-20T08:31:13Z</time>
      </trkpt>
      <trkpt lat="44.44824" lon="3.11318">
        <ele>494</ele>
        <time>2020-02-20T08:31:21Z</time>
      </trkpt>
      <trkpt lat="44.44824" lon="3.11332">
        <ele>494</ele>
        <time>2020-02-20T08:31:29Z</time>
      </trkpt>
      <trkpt lat="44.44814" lon="3.11351">
        <ele>495</ele>
        <time>2020-02-20T08:32:58Z</time>
      </trkpt>
      <trkpt lat="44.44805" lon="3.11364">
        <ele>495</ele>
        <time>2020-02-20T08:33:06Z</time>
      </trkpt>
      <trkpt lat="44.44797" lon="3.11368">
        <ele>495.53761301107</ele>
        <time>2020-02-20T08:33:12Z</time>
      </trkpt>
      <trkpt lat="44.44788" lon="3.11373">
        <ele>496</ele>
        <time>2020-02-20T08:33:28Z</time>
      </trkpt>
      <trkpt lat="44.44774" lon="3.11376">
        <ele>496</ele>
        <time>2020-02-20T08:33:33Z</time>
      </trkpt>
      <trkpt lat="44.44766" lon="3.11383">
        <ele>496.29799936</ele>
        <time>2020-02-20T08:33:38Z</time>
      </trkpt>
      <trkpt lat="44.44757" lon="3.1139">
        <ele>497.29799936</ele>
        <time>2020-02-20T08:33:43Z</time>
      </trkpt>
      <trkpt lat="44.44748" lon="3.11399">
        <ele>498</ele>
        <time>2020-02-20T08:33:51Z</time>
      </trkpt>
      <trkpt lat="44.4474" lon="3.1141">
        <ele>498</ele>
        <time>2020-02-20T08:33:59Z</time>
      </trkpt>
      <trkpt lat="44.44731" lon="3.1142">
        <ele>498.03838321673</ele>
        <time>2020-02-20T08:34:07Z</time>
      </trkpt>
      <trkpt lat="44.44724" lon="3.11431">
        <ele>498.84646454721</ele>
        <time>2020-02-20T08:34:15Z</time>
      </trkpt>
      <trkpt lat="44.44715" lon="3.11439">
        <ele>499</ele>
        <time>2020-02-20T08:34:23Z</time>
      </trkpt>
      <trkpt lat="44.44711" lon="3.11452">
        <ele>499</ele>
        <time>2020-02-20T08:34:29Z</time>
      </trkpt>
      <trkpt lat="44.44707" lon="3.11466">
        <ele>499</ele>
        <time>2020-02-20T08:34:37Z</time>
      </trkpt>
      <trkpt lat="44.44704" lon="3.11481">
        <ele>499</ele>
        <time>2020-02-20T08:34:45Z</time>
      </trkpt>
      <trkpt lat="44.44701" lon="3.11496">
        <ele>499.62424266716</ele>
        <time>2020-02-20T08:34:53Z</time>
      </trkpt>
      <trkpt lat="44.447" lon="3.11511">
        <ele>500</ele>
        <time>2020-02-20T08:35:01Z</time>
      </trkpt>
      <trkpt lat="44.44699" lon="3.11526">
        <ele>500</ele>
        <time>2020-02-20T08:35:09Z</time>
      </trkpt>
      <trkpt lat="44.44699" lon="3.11543">
        <ele>500</ele>
        <time>2020-02-20T08:35:17Z</time>
      </trkpt>
      <trkpt lat="44.447" lon="3.11559">
        <ele>500</ele>
        <time>2020-02-20T08:35:25Z</time>
      </trkpt>
      <trkpt lat="44.447" lon="3.11573">
        <ele>500</ele>
        <time>2020-02-20T08:35:33Z</time>
      </trkpt>
      <trkpt lat="44.44701" lon="3.1159">
        <ele>500</ele>
        <time>2020-02-20T08:35:41Z</time>
      </trkpt>
      <trkpt lat="44.44702" lon="3.11605">
        <ele>500.2064646071</ele>
        <time>2020-02-20T08:35:49Z</time>
      </trkpt>
      <trkpt lat="44.44707" lon="3.11619">
        <ele>501.03834836105</ele>
        <time>2020-02-20T08:35:57Z</time>
      </trkpt>
      <trkpt lat="44.4471" lon="3.11631">
        <ele>502</ele>
        <time>2020-02-20T08:36:07Z</time>
      </trkpt>
      <trkpt lat="44.4471" lon="3.11636">
        <ele>501</ele>
        <time>2020-02-20T08:37:32Z</time>
      </trkpt>
      <trkpt lat="44.44712" lon="3.11651">
        <ele>501</ele>
        <time>2020-02-20T08:37:40Z</time>
      </trkpt>
      <trkpt lat="44.44706" lon="3.11662">
        <ele>500.85849978606</ele>
        <time>2020-02-20T08:37:48Z</time>
      </trkpt>
      <trkpt lat="44.44707" lon="3.11677">
        <ele>500</ele>
        <time>2020-02-20T08:38:05Z</time>
      </trkpt>
      <trkpt lat="44.44708" lon="3.11693">
        <ele>500</ele>
        <time>2020-02-20T08:38:13Z</time>
      </trkpt>
      <trkpt lat="44.44711" lon="3.11709">
        <ele>500</ele>
        <time>2020-02-20T08:38:21Z</time>
      </trkpt>
      <trkpt lat="44.44713" lon="3.11725">
        <ele>499.77555095827</ele>
        <time>2020-02-20T08:38:29Z</time>
      </trkpt>
      <trkpt lat="44.44713" lon="3.11741">
        <ele>498.97363019967</ele>
        <time>2020-02-20T08:38:37Z</time>
      </trkpt>
      <trkpt lat="44.44715" lon="3.11757">
        <ele>498.16227169994</ele>
        <time>2020-02-20T08:38:45Z</time>
      </trkpt>
      <trkpt lat="44.44716" lon="3.1177">
        <ele>498</ele>
        <time>2020-02-20T08:38:51Z</time>
      </trkpt>
      <trkpt lat="44.44718" lon="3.11786">
        <ele>497.76114989452</ele>
        <time>2020-02-20T08:38:59Z</time>
      </trkpt>
      <trkpt lat="44.4472" lon="3.11801">
        <ele>497</ele>
        <time>2020-02-20T08:39:13Z</time>
      </trkpt>
      <trkpt lat="44.44728" lon="3.11803">
        <ele>497.36954326726</ele>
        <time>2020-02-20T08:49:13Z</time>
      </trkpt>
      <trkpt lat="44.44736" lon="3.11813">
        <ele>497.43951612903</ele>
        <time>2020-02-20T08:49:21Z</time>
      </trkpt>
      <trkpt lat="44.4474" lon="3.11827">
        <ele>498.24424416601</ele>
        <time>2020-02-20T08:49:29Z</time>
      </trkpt>
      <trkpt lat="44.44744" lon="3.11838">
        <ele>498.84484457422</ele>
        <time>2020-02-20T08:49:35Z</time>
      </trkpt>
      <trkpt lat="44.44747" lon="3.11853">
        <ele>499</ele>
        <time>2020-02-20T08:49:42Z</time>
      </trkpt>
      <trkpt lat="44.44753" lon="3.11869">
        <ele>499</ele>
        <time>2020-02-20T08:49:51Z</time>
      </trkpt>
      <trkpt lat="44.44764" lon="3.11885">
        <ele>500</ele>
        <time>2020-02-20T08:50:38Z</time>
      </trkpt>
      <trkpt lat="44.44769" lon="3.11897">
        <ele>500</ele>
        <time>2020-02-20T08:50:45Z</time>
      </trkpt>
      <trkpt lat="44.44773" lon="3.11909">
        <ele>500</ele>
        <time>2020-02-20T08:50:52Z</time>
      </trkpt>
      <trkpt lat="44.4478" lon="3.11921">
        <ele>500.3333337696</ele>
        <time>2020-02-20T08:51:00Z</time>
      </trkpt>
      <trkpt lat="44.44784" lon="3.11936">
        <ele>501.14610073717</ele>
        <time>2020-02-20T08:51:08Z</time>
      </trkpt>
      <trkpt lat="44.44787" lon="3.11953">
        <ele>501.9358344516</ele>
        <time>2020-02-20T08:51:16Z</time>
      </trkpt>
      <trkpt lat="44.44789" lon="3.11967">
        <ele>502.63947686267</ele>
        <time>2020-02-20T08:51:23Z</time>
      </trkpt>
      <trkpt lat="44.44793" lon="3.11979">
        <ele>503</ele>
        <time>2020-02-20T08:51:29Z</time>
      </trkpt>
      <trkpt lat="44.44798" lon="3.11991">
        <ele>503</ele>
        <time>2020-02-20T08:51:36Z</time>
      </trkpt>
      <trkpt lat="44.44803" lon="3.12004">
        <ele>503.7358302834</ele>
        <time>2020-02-20T08:51:44Z</time>
      </trkpt>
      <trkpt lat="44.44808" lon="3.12018">
        <ele>504</ele>
        <time>2020-02-20T08:51:52Z</time>
      </trkpt>
      <trkpt lat="44.44809" lon="3.12034">
        <ele>503.65304098806</ele>
        <time>2020-02-20T08:52:00Z</time>
      </trkpt>
      <trkpt lat="44.44807" lon="3.12048">
        <ele>502.8557216655</ele>
        <time>2020-02-20T08:52:08Z</time>
      </trkpt>
      <trkpt lat="44.44802" lon="3.12066">
        <ele>501.03431403922</ele>
        <time>2020-02-20T08:54:07Z</time>
      </trkpt>
      <trkpt lat="44.44803" lon="3.1208">
        <ele>501.81862776471</ele>
        <time>2020-02-20T08:54:15Z</time>
      </trkpt>
      <trkpt lat="44.44801" lon="3.12094">
        <ele>502</ele>
        <time>2020-02-20T08:54:31Z</time>
      </trkpt>
      <trkpt lat="44.44801" lon="3.12107">
        <ele>502.24650714794</ele>
        <time>2020-02-20T08:54:39Z</time>
      </trkpt>
      <trkpt lat="44.44809" lon="3.12129">
        <ele>505.27494955604</ele>
        <time>2020-02-20T08:56:43Z</time>
      </trkpt>
      <trkpt lat="44.44816" lon="3.12119">
        <ele>506.70857186046</ele>
        <time>2020-02-20T08:56:54Z</time>
      </trkpt>
      <trkpt lat="44.44822" lon="3.12121">
        <ele>508</ele>
        <time>2020-02-20T08:59:26Z</time>
      </trkpt>
      <trkpt lat="44.44821" lon="3.12137">
        <ele>510.12828306859</ele>
        <time>2020-02-20T08:59:38Z</time>
      </trkpt>
      <trkpt lat="44.44821" lon="3.1215">
        <ele>510.93636335427</ele>
        <time>2020-02-20T08:59:46Z</time>
      </trkpt>
      <trkpt lat="44.4482" lon="3.12163">
        <ele>511</ele>
        <time>2020-02-20T08:59:54Z</time>
      </trkpt>
      <trkpt lat="44.44822" lon="3.12177">
        <ele>511.52099175572</ele>
        <time>2020-02-20T09:00:02Z</time>
      </trkpt>
      <trkpt lat="44.44822" lon="3.12191">
        <ele>512</ele>
        <time>2020-02-20T09:00:10Z</time>
      </trkpt>
      <trkpt lat="44.4482" lon="3.12208">
        <ele>512.24263277477</ele>
        <time>2020-02-20T09:00:19Z</time>
      </trkpt>
      <trkpt lat="44.44819" lon="3.12226">
        <ele>513.12887085039</ele>
        <time>2020-02-20T09:00:28Z</time>
      </trkpt>
      <trkpt lat="44.44812" lon="3.1225">
        <ele>514</ele>
        <time>2020-02-20T09:00:41Z</time>
      </trkpt>
      <trkpt lat="44.44812" lon="3.12262">
        <ele>514</ele>
        <time>2020-02-20T09:02:52Z</time>
      </trkpt>
      <trkpt lat="44.44821" lon="3.12261">
        <ele>514</ele>
        <time>2020-02-20T09:03:06Z</time>
      </trkpt>
      <trkpt lat="44.44827" lon="3.12247">
        <ele>518.71699968</ele>
        <time>2020-02-20T09:08:14Z</time>
      </trkpt>
      <trkpt lat="44.44832" lon="3.12236">
        <ele>519.26369055655</ele>
        <time>2020-02-20T09:08:28Z</time>
      </trkpt>
      <trkpt lat="44.44837" lon="3.12222">
        <ele>521.34434423404</ele>
        <time>2020-02-20T09:08:40Z</time>
      </trkpt>
      <trkpt lat="44.4484" lon="3.12209">
        <ele>523.08134857143</ele>
        <time>2020-02-20T09:08:52Z</time>
      </trkpt>
      <trkpt lat="44.44843" lon="3.12195">
        <ele>524.53168318839</ele>
        <time>2020-02-20T09:09:02Z</time>
      </trkpt>
      <trkpt lat="44.44849" lon="3.12181">
        <ele>525.84130218798</ele>
        <time>2020-02-20T09:09:15Z</time>
      </trkpt>
      <trkpt lat="44.44854" lon="3.12171">
        <ele>527.6746031746</ele>
        <time>2020-02-20T09:09:25Z</time>
      </trkpt>
      <trkpt lat="44.44859" lon="3.12183">
        <ele>531.15469083932</ele>
        <time>2020-02-20T09:10:05Z</time>
      </trkpt>
      <trkpt lat="44.44861" lon="3.12178">
        <ele>531.6247523962</ele>
        <time>2020-02-20T09:13:03Z</time>
      </trkpt>
      <trkpt lat="44.44869" lon="3.12173">
        <ele>533.82556981584</ele>
        <time>2020-02-20T09:13:16Z</time>
      </trkpt>
      <trkpt lat="44.4488" lon="3.12173">
        <ele>538.07396124722</ele>
        <time>2020-02-20T09:13:32Z</time>
      </trkpt>
      <trkpt lat="44.44888" lon="3.1218">
        <ele>539.73783523723</ele>
        <time>2020-02-20T09:13:44Z</time>
      </trkpt>
      <trkpt lat="44.44898" lon="3.12178">
        <ele>542.2842854745</ele>
        <time>2020-02-20T09:14:08Z</time>
      </trkpt>
      <trkpt lat="44.44908" lon="3.12183">
        <ele>544.04581615403</ele>
        <time>2020-02-20T09:14:37Z</time>
      </trkpt>
      <trkpt lat="44.44918" lon="3.1219">
        <ele>545.24272859276</ele>
        <time>2020-02-20T09:14:49Z</time>
      </trkpt>
      <trkpt lat="44.44928" lon="3.12195">
        <ele>546.68316811607</ele>
        <time>2020-02-20T09:15:00Z</time>
      </trkpt>
      <trkpt lat="44.44938" lon="3.12201">
        <ele>548.53339994946</ele>
        <time>2020-02-20T09:15:12Z</time>
      </trkpt>
      <trkpt lat="44.44946" lon="3.12209">
        <ele>549.53253236195</ele>
        <time>2020-02-20T09:15:22Z</time>
      </trkpt>
      <trkpt lat="44.44955" lon="3.12216">
        <ele>551.28527895562</ele>
        <time>2020-02-20T09:15:33Z</time>
      </trkpt>
      <trkpt lat="44.44965" lon="3.12223">
        <ele>552.84126984127</ele>
        <time>2020-02-20T09:15:45Z</time>
      </trkpt>
      <trkpt lat="44.44973" lon="3.1223">
        <ele>554.83773158546</ele>
        <time>2020-02-20T09:15:56Z</time>
      </trkpt>
      <trkpt lat="44.44976" lon="3.12243">
        <ele>557.38601908457</ele>
        <time>2020-02-20T09:16:08Z</time>
      </trkpt>
      <trkpt lat="44.44973" lon="3.12256">
        <ele>560.2791624234</ele>
        <time>2020-02-20T09:16:18Z</time>
      </trkpt>
      <trkpt lat="44.44972" lon="3.12271">
        <ele>562.33835309237</ele>
        <time>2020-02-20T09:16:30Z</time>
      </trkpt>
      <trkpt lat="44.44973" lon="3.12285">
        <ele>563.87936099562</ele>
        <time>2020-02-20T09:16:41Z</time>
      </trkpt>
      <trkpt lat="44.44975" lon="3.12297">
        <ele>566.08032138836</ele>
        <time>2020-02-20T09:16:52Z</time>
      </trkpt>
      <trkpt lat="44.4498" lon="3.12309">
        <ele>568.07968117331</ele>
        <time>2020-02-20T09:17:02Z</time>
      </trkpt>
      <trkpt lat="44.44985" lon="3.12322">
        <ele>570.4909087618</ele>
        <time>2020-02-20T09:17:14Z</time>
      </trkpt>
      <trkpt lat="44.44991" lon="3.12332">
        <ele>572.6725848821</ele>
        <time>2020-02-20T09:17:25Z</time>
      </trkpt>
      <trkpt lat="44.44997" lon="3.12341">
        <ele>574.6580519074</ele>
        <time>2020-02-20T09:17:35Z</time>
      </trkpt>
      <trkpt lat="44.45004" lon="3.12351">
        <ele>579</ele>
        <time>2020-02-20T09:19:26Z</time>
      </trkpt>
      <trkpt lat="44.45009" lon="3.12362">
        <ele>580.54518391597</ele>
        <time>2020-02-20T09:19:42Z</time>
      </trkpt>
      <trkpt lat="44.45016" lon="3.12375">
        <ele>582.48400128</ele>
        <time>2020-02-20T09:19:54Z</time>
      </trkpt>
      <trkpt lat="44.45022" lon="3.12387">
        <ele>585.0862593352</ele>
        <time>2020-02-20T09:20:07Z</time>
      </trkpt>
      <trkpt lat="44.45028" lon="3.124">
        <ele>587.6892426317</ele>
        <time>2020-02-20T09:20:20Z</time>
      </trkpt>
      <trkpt lat="44.45034" lon="3.12409">
        <ele>589.24151745053</ele>
        <time>2020-02-20T09:20:29Z</time>
      </trkpt>
      <trkpt lat="44.45038" lon="3.12422">
        <ele>590.48096223228</ele>
        <time>2020-02-20T09:20:39Z</time>
      </trkpt>
      <trkpt lat="44.45043" lon="3.12437">
        <ele>593.62762902819</ele>
        <time>2020-02-20T09:20:52Z</time>
      </trkpt>
      <trkpt lat="44.45048" lon="3.12449">
        <ele>596.26326113115</ele>
        <time>2020-02-20T09:21:03Z</time>
      </trkpt>
      <trkpt lat="44.45047" lon="3.12464">
        <ele>597.86707509721</ele>
        <time>2020-02-20T09:21:21Z</time>
      </trkpt>
      <trkpt lat="44.45046" lon="3.12478">
        <ele>599.87622719134</ele>
        <time>2020-02-20T09:21:31Z</time>
      </trkpt>
      <trkpt lat="44.45049" lon="3.12492">
        <ele>601.6401633077</ele>
        <time>2020-02-20T09:21:43Z</time>
      </trkpt>
      <trkpt lat="44.45051" lon="3.12506">
        <ele>602.73596067438</ele>
        <time>2020-02-20T09:21:54Z</time>
      </trkpt>
      <trkpt lat="44.45055" lon="3.12521">
        <ele>604.4743207168</ele>
        <time>2020-02-20T09:22:04Z</time>
      </trkpt>
      <trkpt lat="44.4506" lon="3.12534">
        <ele>607</ele>
        <time>2020-02-20T09:22:17Z</time>
      </trkpt>
      <trkpt lat="44.45064" lon="3.12548">
        <ele>607</ele>
        <time>2020-02-20T09:22:28Z</time>
      </trkpt>
      <trkpt lat="44.45069" lon="3.12561">
        <ele>607.68548387097</ele>
        <time>2020-02-20T09:22:40Z</time>
      </trkpt>
      <trkpt lat="44.45075" lon="3.12574">
        <ele>609.69461033478</ele>
        <time>2020-02-20T09:22:50Z</time>
      </trkpt>
      <trkpt lat="44.45079" lon="3.12586">
        <ele>611.14426832477</ele>
        <time>2020-02-20T09:22:58Z</time>
      </trkpt>
      <trkpt lat="44.45083" lon="3.12597">
        <ele>611.93478315862</ele>
        <time>2020-02-20T09:23:06Z</time>
      </trkpt>
      <trkpt lat="44.45086" lon="3.12611">
        <ele>612.73843075192</ele>
        <time>2020-02-20T09:23:14Z</time>
      </trkpt>
      <trkpt lat="44.4509" lon="3.12623">
        <ele>613.54162504846</ele>
        <time>2020-02-20T09:23:22Z</time>
      </trkpt>
      <trkpt lat="44.45094" lon="3.12635">
        <ele>614.34197428771</ele>
        <time>2020-02-20T09:23:30Z</time>
      </trkpt>
      <trkpt lat="44.45098" lon="3.12647">
        <ele>615.14</ele>
        <time>2020-02-20T09:23:38Z</time>
      </trkpt>
      <trkpt lat="44.45102" lon="3.12659">
        <ele>615.94</ele>
        <time>2020-02-20T09:23:46Z</time>
      </trkpt>
      <trkpt lat="44.45106" lon="3.12671">
        <ele>616.73558694908</ele>
        <time>2020-02-20T09:23:54Z</time>
      </trkpt>
      <trkpt lat="44.4511" lon="3.12683">
        <ele>617.53245626126</ele>
        <time>2020-02-20T09:24:02Z</time>
      </trkpt>
      <trkpt lat="44.45114" lon="3.12695">
        <ele>618.33407335945</ele>
        <time>2020-02-20T09:24:10Z</time>
      </trkpt>
      <trkpt lat="44.45118" lon="3.12707">
        <ele>619.14</ele>
        <time>2020-02-20T09:24:18Z</time>
      </trkpt>
      <trkpt lat="44.45121" lon="3.12718">
        <ele>619.94</ele>
        <time>2020-02-20T09:24:26Z</time>
      </trkpt>
      <trkpt lat="44.45124" lon="3.12733">
        <ele>620.94292321283</ele>
        <time>2020-02-20T09:24:36Z</time>
      </trkpt>
      <trkpt lat="44.45133" lon="3.12742">
        <ele>623</ele>
        <time>2020-02-20T09:24:47Z</time>
      </trkpt>
      <trkpt lat="44.45141" lon="3.12734">
        <ele>623.03153853044</ele>
        <time>2020-02-20T09:24:57Z</time>
      </trkpt>
      <trkpt lat="44.45138" lon="3.12728">
        <ele>625</ele>
        <time>2020-02-20T09:27:49Z</time>
      </trkpt>
      <trkpt lat="44.45136" lon="3.12712">
        <ele>625</ele>
        <time>2020-02-20T09:27:59Z</time>
      </trkpt>
      <trkpt lat="44.45136" lon="3.12699">
        <ele>625.09799936</ele>
        <time>2020-02-20T09:28:07Z</time>
      </trkpt>
      <trkpt lat="44.45138" lon="3.12687">
        <ele>626.69799936</ele>
        <time>2020-02-20T09:28:15Z</time>
      </trkpt>
      <trkpt lat="44.45139" lon="3.12674">
        <ele>628.28642197389</ele>
        <time>2020-02-20T09:28:23Z</time>
      </trkpt>
      <trkpt lat="44.45141" lon="3.12662">
        <ele>629.42759974425</ele>
        <time>2020-02-20T09:28:31Z</time>
      </trkpt>
      <trkpt lat="44.45145" lon="3.12648">
        <ele>630.52626174212</ele>
        <time>2020-02-20T09:28:42Z</time>
      </trkpt>
      <trkpt lat="44.4515" lon="3.12638">
        <ele>631.85106330302</ele>
        <time>2020-02-20T09:28:51Z</time>
      </trkpt>
      <trkpt lat="44.45155" lon="3.12625">
        <ele>633.41769536487</ele>
        <time>2020-02-20T09:29:01Z</time>
      </trkpt>
      <trkpt lat="44.45162" lon="3.12612">
        <ele>635.08206781534</ele>
        <time>2020-02-20T09:29:12Z</time>
      </trkpt>
      <trkpt lat="44.4517" lon="3.1261">
        <ele>636.34390484623</ele>
        <time>2020-02-20T09:29:20Z</time>
      </trkpt>
      <trkpt lat="44.4518" lon="3.12615">
        <ele>637.34175881634</ele>
        <time>2020-02-20T09:29:30Z</time>
      </trkpt>
      <trkpt lat="44.45186" lon="3.12625">
        <ele>638</ele>
        <time>2020-02-20T09:29:38Z</time>
      </trkpt>
      <trkpt lat="44.45193" lon="3.12637">
        <ele>638.48103759268</ele>
        <time>2020-02-20T09:29:49Z</time>
      </trkpt>
      <trkpt lat="44.45198" lon="3.12647">
        <ele>640.13872278565</ele>
        <time>2020-02-20T09:29:58Z</time>
      </trkpt>
      <trkpt lat="44.45206" lon="3.12656">
        <ele>640.9371254693</ele>
        <time>2020-02-20T09:30:06Z</time>
      </trkpt>
      <trkpt lat="44.45212" lon="3.12668">
        <ele>642.85912634921</ele>
        <time>2020-02-20T09:30:16Z</time>
      </trkpt>
      <trkpt lat="44.45219" lon="3.12678">
        <ele>643.83737395547</ele>
        <time>2020-02-20T09:30:25Z</time>
      </trkpt>
      <trkpt lat="44.45226" lon="3.12689">
        <ele>644.73826134992</ele>
        <time>2020-02-20T09:30:34Z</time>
      </trkpt>
      <trkpt lat="44.45232" lon="3.12699">
        <ele>645.67667604565</ele>
        <time>2020-02-20T09:30:40Z</time>
      </trkpt>
      <trkpt lat="44.45239" lon="3.12709">
        <ele>648.06627131434</ele>
        <time>2020-02-20T09:30:52Z</time>
      </trkpt>
      <trkpt lat="44.45246" lon="3.12716">
        <ele>650.03413714488</ele>
        <time>2020-02-20T09:31:17Z</time>
      </trkpt>
      <trkpt lat="44.45253" lon="3.12726">
        <ele>651.23799936</ele>
        <time>2020-02-20T09:31:29Z</time>
      </trkpt>
      <trkpt lat="44.45262" lon="3.12734">
        <ele>652</ele>
        <time>2020-02-20T09:31:38Z</time>
      </trkpt>
      <trkpt lat="44.45269" lon="3.12742">
        <ele>652.00417536255</ele>
        <time>2020-02-20T09:31:47Z</time>
      </trkpt>
      <trkpt lat="44.45275" lon="3.12753">
        <ele>652.94363193745</ele>
        <time>2020-02-20T09:31:56Z</time>
      </trkpt>
      <trkpt lat="44.45281" lon="3.12763">
        <ele>654.67524731897</ele>
        <time>2020-02-20T09:32:05Z</time>
      </trkpt>
      <trkpt lat="44.45288" lon="3.12772">
        <ele>656.67367313756</ele>
        <time>2020-02-20T09:32:15Z</time>
      </trkpt>
      <trkpt lat="44.45296" lon="3.12783">
        <ele>659.02123325257</ele>
        <time>2020-02-20T09:32:27Z</time>
      </trkpt>
      <trkpt lat="44.45304" lon="3.12791">
        <ele>661.14271622047</ele>
        <time>2020-02-20T09:34:08Z</time>
      </trkpt>
      <trkpt lat="44.45312" lon="3.12797">
        <ele>661.93011779528</ele>
        <time>2020-02-20T09:34:16Z</time>
      </trkpt>
      <trkpt lat="44.45322" lon="3.128">
        <ele>663.87866527924</ele>
        <time>2020-02-20T09:34:26Z</time>
      </trkpt>
      <trkpt lat="44.45331" lon="3.128">
        <ele>664.84</ele>
        <time>2020-02-20T09:34:35Z</time>
      </trkpt>
      <trkpt lat="44.45341" lon="3.12798">
        <ele>667.54288515265</ele>
        <time>2020-02-20T09:34:45Z</time>
      </trkpt>
      <trkpt lat="44.45352" lon="3.12795">
        <ele>668.8250728319</ele>
        <time>2020-02-20T09:34:55Z</time>
      </trkpt>
      <trkpt lat="44.45362" lon="3.12792">
        <ele>669</ele>
        <time>2020-02-20T09:35:05Z</time>
      </trkpt>
      <trkpt lat="44.45373" lon="3.12788">
        <ele>669.83685751925</ele>
        <time>2020-02-20T09:35:15Z</time>
      </trkpt>
      <trkpt lat="44.45381" lon="3.12781">
        <ele>671.65982415333</ele>
        <time>2020-02-20T09:36:20Z</time>
      </trkpt>
      <trkpt lat="44.45391" lon="3.12779">
        <ele>671.86294379304</ele>
        <time>2020-02-20T09:36:31Z</time>
      </trkpt>
      <trkpt lat="44.45401" lon="3.12775">
        <ele>673</ele>
        <time>2020-02-20T09:36:41Z</time>
      </trkpt>
      <trkpt lat="44.4541" lon="3.12773">
        <ele>673.2376236118</ele>
        <time>2020-02-20T09:36:49Z</time>
      </trkpt>
      <trkpt lat="44.45421" lon="3.1277">
        <ele>674</ele>
        <time>2020-02-20T09:36:57Z</time>
      </trkpt>
      <trkpt lat="44.45431" lon="3.12769">
        <ele>674</ele>
        <time>2020-02-20T09:37:05Z</time>
      </trkpt>
      <trkpt lat="44.45441" lon="3.12769">
        <ele>674.64185087604</ele>
        <time>2020-02-20T09:37:13Z</time>
      </trkpt>
      <trkpt lat="44.4545" lon="3.12768">
        <ele>675.43700787402</ele>
        <time>2020-02-20T09:37:21Z</time>
      </trkpt>
      <trkpt lat="44.45452" lon="3.12769">
        <ele>676</ele>
        <time>2020-02-20T09:38:46Z</time>
      </trkpt>
      <trkpt lat="44.45461" lon="3.12778">
        <ele>676.14214273725</ele>
        <time>2020-02-20T09:38:58Z</time>
      </trkpt>
      <trkpt lat="44.4547" lon="3.12787">
        <ele>677.28205173519</ele>
        <time>2020-02-20T09:39:08Z</time>
      </trkpt>
      <trkpt lat="44.4548" lon="3.12792">
        <ele>679</ele>
        <time>2020-02-20T09:39:18Z</time>
      </trkpt>
      <trkpt lat="44.4549" lon="3.12796">
        <ele>679.22899968</ele>
        <time>2020-02-20T09:39:29Z</time>
      </trkpt>
      <trkpt lat="44.455" lon="3.128">
        <ele>680.66801987184</ele>
        <time>2020-02-20T09:39:40Z</time>
      </trkpt>
      <trkpt lat="44.45509" lon="3.12803">
        <ele>682.488</ele>
        <time>2020-02-20T09:39:49Z</time>
      </trkpt>
      <trkpt lat="44.45518" lon="3.12806">
        <ele>684.69007043212</ele>
        <time>2020-02-20T09:40:00Z</time>
      </trkpt>
      <trkpt lat="44.45527" lon="3.1281">
        <ele>686.24626145683</ele>
        <time>2020-02-20T09:40:09Z</time>
      </trkpt>
      <trkpt lat="44.45537" lon="3.12814">
        <ele>687.04378110847</ele>
        <time>2020-02-20T09:40:17Z</time>
      </trkpt>
      <trkpt lat="44.45547" lon="3.12821">
        <ele>688</ele>
        <time>2020-02-20T09:40:28Z</time>
      </trkpt>
      <trkpt lat="44.45549" lon="3.12829">
        <ele>688</ele>
        <time>2020-02-20T09:41:22Z</time>
      </trkpt>
      <trkpt lat="44.45549" lon="3.12833">
        <ele>688</ele>
        <time>2020-02-20T09:41:50Z</time>
      </trkpt>
      <trkpt lat="44.45551" lon="3.12846">
        <ele>688</ele>
        <time>2020-02-20T09:43:31Z</time>
      </trkpt>
      <trkpt lat="44.45551" lon="3.1286">
        <ele>688</ele>
        <time>2020-02-20T09:43:39Z</time>
      </trkpt>
      <trkpt lat="44.45552" lon="3.12875">
        <ele>688</ele>
        <time>2020-02-20T09:43:47Z</time>
      </trkpt>
      <trkpt lat="44.45553" lon="3.12889">
        <ele>688</ele>
        <time>2020-02-20T09:43:55Z</time>
      </trkpt>
      <trkpt lat="44.45558" lon="3.12902">
        <ele>688</ele>
        <time>2020-02-20T09:44:03Z</time>
      </trkpt>
      <trkpt lat="44.45563" lon="3.12914">
        <ele>688</ele>
        <time>2020-02-20T09:44:11Z</time>
      </trkpt>
      <trkpt lat="44.45571" lon="3.12924">
        <ele>687.77215134656</ele>
        <time>2020-02-20T09:44:19Z</time>
      </trkpt>
      <trkpt lat="44.45579" lon="3.12932">
        <ele>686.99297156627</ele>
        <time>2020-02-20T09:44:27Z</time>
      </trkpt>
      <trkpt lat="44.45587" lon="3.1294">
        <ele>686.18975871486</ele>
        <time>2020-02-20T09:44:35Z</time>
      </trkpt>
      <trkpt lat="44.45595" lon="3.12948">
        <ele>684.75812943089</ele>
        <time>2020-02-20T09:44:43Z</time>
      </trkpt>
      <trkpt lat="44.45604" lon="3.12957">
        <ele>683.56737570257</ele>
        <time>2020-02-20T09:44:51Z</time>
      </trkpt>
      <trkpt lat="44.45612" lon="3.12967">
        <ele>682.5252227022</ele>
        <time>2020-02-20T09:44:59Z</time>
      </trkpt>
      <trkpt lat="44.45619" lon="3.12976">
        <ele>680.97105818511</ele>
        <time>2020-02-20T09:45:07Z</time>
      </trkpt>
      <trkpt lat="44.45627" lon="3.12988">
        <ele>680.17265448154</ele>
        <time>2020-02-20T09:45:15Z</time>
      </trkpt>
      <trkpt lat="44.45633" lon="3.12999">
        <ele>679.3711136246</ele>
        <time>2020-02-20T09:45:23Z</time>
      </trkpt>
      <trkpt lat="44.4564" lon="3.1301">
        <ele>679</ele>
        <time>2020-02-20T09:45:31Z</time>
      </trkpt>
      <trkpt lat="44.45648" lon="3.13018">
        <ele>678.76798388781</ele>
        <time>2020-02-20T09:45:39Z</time>
      </trkpt>
      <trkpt lat="44.45658" lon="3.13023">
        <ele>677.95808322039</ele>
        <time>2020-02-20T09:45:47Z</time>
      </trkpt>
      <trkpt lat="44.45669" lon="3.13024">
        <ele>677.15968053673</ele>
        <time>2020-02-20T09:45:55Z</time>
      </trkpt>
      <trkpt lat="44.45679" lon="3.13024">
        <ele>677</ele>
        <time>2020-02-20T09:46:03Z</time>
      </trkpt>
      <trkpt lat="44.45688" lon="3.13026">
        <ele>677</ele>
        <time>2020-02-20T09:46:11Z</time>
      </trkpt>
      <trkpt lat="44.45698" lon="3.13026">
        <ele>677</ele>
        <time>2020-02-20T09:46:19Z</time>
      </trkpt>
      <trkpt lat="44.45709" lon="3.13028">
        <ele>677</ele>
        <time>2020-02-20T09:46:29Z</time>
      </trkpt>
      <trkpt lat="44.4572" lon="3.1303">
        <ele>677.03514088353</ele>
        <time>2020-02-20T09:46:37Z</time>
      </trkpt>
      <trkpt lat="44.4573" lon="3.13035">
        <ele>677.83835373494</ele>
        <time>2020-02-20T09:46:45Z</time>
      </trkpt>
      <trkpt lat="44.45748" lon="3.13036">
        <ele>678</ele>
        <time>2020-02-20T09:46:57Z</time>
      </trkpt>
      <trkpt lat="44.45756" lon="3.13038">
        <ele>678</ele>
        <time>2020-02-20T09:47:03Z</time>
      </trkpt>
      <trkpt lat="44.45766" lon="3.13042">
        <ele>678</ele>
        <time>2020-02-20T09:47:11Z</time>
      </trkpt>
      <trkpt lat="44.45776" lon="3.13047">
        <ele>678.23410688707</ele>
        <time>2020-02-20T09:47:19Z</time>
      </trkpt>
      <trkpt lat="44.45785" lon="3.13051">
        <ele>679</ele>
        <time>2020-02-20T09:47:28Z</time>
      </trkpt>
      <trkpt lat="44.45795" lon="3.13058">
        <ele>679</ele>
        <time>2020-02-20T09:47:36Z</time>
      </trkpt>
      <trkpt lat="44.45804" lon="3.13067">
        <ele>679</ele>
        <time>2020-02-20T09:47:45Z</time>
      </trkpt>
      <trkpt lat="44.45816" lon="3.13071">
        <ele>679</ele>
        <time>2020-02-20T09:47:54Z</time>
      </trkpt>
      <trkpt lat="44.45828" lon="3.13076">
        <ele>679</ele>
        <time>2020-02-20T09:48:03Z</time>
      </trkpt>
      <trkpt lat="44.45837" lon="3.13082">
        <ele>679</ele>
        <time>2020-02-20T09:48:10Z</time>
      </trkpt>
      <trkpt lat="44.45852" lon="3.13094">
        <ele>679</ele>
        <time>2020-02-20T09:48:22Z</time>
      </trkpt>
      <trkpt lat="44.45859" lon="3.13102">
        <ele>679</ele>
        <time>2020-02-20T09:49:12Z</time>
      </trkpt>
      <trkpt lat="44.45869" lon="3.13104">
        <ele>679</ele>
        <time>2020-02-20T09:51:46Z</time>
      </trkpt>
      <trkpt lat="44.45878" lon="3.13102">
        <ele>677.5425430094</ele>
        <time>2020-02-20T09:51:54Z</time>
      </trkpt>
      <trkpt lat="44.45887" lon="3.13097">
        <ele>676.36271500325</ele>
        <time>2020-02-20T09:52:03Z</time>
      </trkpt>
      <trkpt lat="44.45896" lon="3.1309">
        <ele>675.65697060111</ele>
        <time>2020-02-20T09:52:10Z</time>
      </trkpt>
      <trkpt lat="44.45904" lon="3.13083">
        <ele>675.05516576433</ele>
        <time>2020-02-20T09:52:16Z</time>
      </trkpt>
      <trkpt lat="44.45911" lon="3.13074">
        <ele>673.11377188904</ele>
        <time>2020-02-20T09:52:26Z</time>
      </trkpt>
      <trkpt lat="44.4592" lon="3.13071">
        <ele>672.26680292184</ele>
        <time>2020-02-20T09:52:44Z</time>
      </trkpt>
      <trkpt lat="44.4593" lon="3.13073">
        <ele>671.55891288908</ele>
        <time>2020-02-20T09:52:51Z</time>
      </trkpt>
      <trkpt lat="44.45938" lon="3.13079">
        <ele>671</ele>
        <time>2020-02-20T09:52:58Z</time>
      </trkpt>
      <trkpt lat="44.45939" lon="3.13092">
        <ele>671</ele>
        <time>2020-02-20T09:53:04Z</time>
      </trkpt>
      <trkpt lat="44.45931" lon="3.131">
        <ele>672.088</ele>
        <time>2020-02-20T09:53:12Z</time>
      </trkpt>
      <trkpt lat="44.45924" lon="3.13109">
        <ele>673.14299896151</ele>
        <time>2020-02-20T09:53:18Z</time>
      </trkpt>
      <trkpt lat="44.45922" lon="3.13121">
        <ele>674.03707385143</ele>
        <time>2020-02-20T09:53:27Z</time>
      </trkpt>
      <trkpt lat="44.45918" lon="3.13133">
        <ele>674.8386775719</ele>
        <time>2020-02-20T09:53:35Z</time>
      </trkpt>
      <trkpt lat="44.45913" lon="3.13144">
        <ele>675.53953968703</ele>
        <time>2020-02-20T09:53:42Z</time>
      </trkpt>
      <trkpt lat="44.45906" lon="3.13153">
        <ele>676.66212248113</ele>
        <time>2020-02-20T09:53:50Z</time>
      </trkpt>
      <trkpt lat="44.45897" lon="3.1316">
        <ele>678.21846113856</ele>
        <time>2020-02-20T09:53:59Z</time>
      </trkpt>
      <trkpt lat="44.45891" lon="3.1317">
        <ele>679</ele>
        <time>2020-02-20T09:54:07Z</time>
      </trkpt>
      <trkpt lat="44.45888" lon="3.13184">
        <ele>679.02532894822</ele>
        <time>2020-02-20T09:54:17Z</time>
      </trkpt>
      <trkpt lat="44.45887" lon="3.13198">
        <ele>679.93718275593</ele>
        <time>2020-02-20T09:54:26Z</time>
      </trkpt>
      <trkpt lat="44.45884" lon="3.13212">
        <ele>682.03528258065</ele>
        <time>2020-02-20T09:54:37Z</time>
      </trkpt>
      <trkpt lat="44.45875" lon="3.13215">
        <ele>682.84173419355</ele>
        <time>2020-02-20T09:54:45Z</time>
      </trkpt>
      <trkpt lat="44.45866" lon="3.13221">
        <ele>683.94105867791</ele>
        <time>2020-02-20T09:55:16Z</time>
      </trkpt>
      <trkpt lat="44.45857" lon="3.13228">
        <ele>684.54208419532</ele>
        <time>2020-02-20T09:55:22Z</time>
      </trkpt>
      <trkpt lat="44.45847" lon="3.13232">
        <ele>685</ele>
        <time>2020-02-20T09:55:30Z</time>
      </trkpt>
      <trkpt lat="44.45838" lon="3.13233">
        <ele>685.07414770286</ele>
        <time>2020-02-20T09:55:37Z</time>
      </trkpt>
      <trkpt lat="44.45827" lon="3.13235">
        <ele>686.6773551438</ele>
        <time>2020-02-20T09:55:45Z</time>
      </trkpt>
      <trkpt lat="44.45818" lon="3.13234">
        <ele>687</ele>
        <time>2020-02-20T09:55:53Z</time>
      </trkpt>
      <trkpt lat="44.45806" lon="3.13233">
        <ele>687.7295168346</ele>
        <time>2020-02-20T09:56:04Z</time>
      </trkpt>
      <trkpt lat="44.45796" lon="3.13227">
        <ele>688</ele>
        <time>2020-02-20T09:56:30Z</time>
      </trkpt>
      <trkpt lat="44.45784" lon="3.13224">
        <ele>688</ele>
        <time>2020-02-20T09:57:48Z</time>
      </trkpt>
      <trkpt lat="44.45769" lon="3.1323">
        <ele>688.34019639216</ele>
        <time>2020-02-20T09:58:00Z</time>
      </trkpt>
      <trkpt lat="44.45761" lon="3.13237">
        <ele>689</ele>
        <time>2020-02-20T09:58:08Z</time>
      </trkpt>
      <trkpt lat="44.45751" lon="3.13244">
        <ele>689</ele>
        <time>2020-02-20T09:58:16Z</time>
      </trkpt>
      <trkpt lat="44.45741" lon="3.13255">
        <ele>688</ele>
        <time>2020-02-20T09:58:27Z</time>
      </trkpt>
      <trkpt lat="44.45731" lon="3.13264">
        <ele>688</ele>
        <time>2020-02-20T09:58:37Z</time>
      </trkpt>
      <trkpt lat="44.45725" lon="3.13274">
        <ele>687.2732018275</ele>
        <time>2020-02-20T09:58:44Z</time>
      </trkpt>
      <trkpt lat="44.45715" lon="3.13283">
        <ele>687</ele>
        <time>2020-02-20T09:58:54Z</time>
      </trkpt>
      <trkpt lat="44.45708" lon="3.13292">
        <ele>686.46339036624</ele>
        <time>2020-02-20T09:59:02Z</time>
      </trkpt>
      <trkpt lat="44.45699" lon="3.13302">
        <ele>685.66233819375</ele>
        <time>2020-02-20T09:59:10Z</time>
      </trkpt>
      <trkpt lat="44.45692" lon="3.13313">
        <ele>685</ele>
        <time>2020-02-20T09:59:18Z</time>
      </trkpt>
      <trkpt lat="44.45683" lon="3.13322">
        <ele>685</ele>
        <time>2020-02-20T09:59:26Z</time>
      </trkpt>
      <trkpt lat="44.45675" lon="3.13333">
        <ele>684.26073902441</ele>
        <time>2020-02-20T09:59:34Z</time>
      </trkpt>
      <trkpt lat="44.45668" lon="3.13341">
        <ele>683.45720060533</ele>
        <time>2020-02-20T09:59:42Z</time>
      </trkpt>
      <trkpt lat="44.45659" lon="3.13351">
        <ele>682.31822721724</ele>
        <time>2020-02-20T09:59:50Z</time>
      </trkpt>
      <trkpt lat="44.45651" lon="3.13361">
        <ele>680.86991034918</ele>
        <time>2020-02-20T09:59:58Z</time>
      </trkpt>
      <trkpt lat="44.45644" lon="3.13368">
        <ele>680.07547167413</ele>
        <time>2020-02-20T10:00:06Z</time>
      </trkpt>
      <trkpt lat="44.45636" lon="3.13383">
        <ele>679</ele>
        <time>2020-02-20T10:02:06Z</time>
      </trkpt>
      <trkpt lat="44.45635" lon="3.13398">
        <ele>679.94360521848</ele>
        <time>2020-02-20T10:02:16Z</time>
      </trkpt>
      <trkpt lat="44.45634" lon="3.13428">
        <ele>681.94466772174</ele>
        <time>2020-02-20T10:02:36Z</time>
      </trkpt>
      <trkpt lat="44.45632" lon="3.1344">
        <ele>682</ele>
        <time>2020-02-20T10:02:44Z</time>
      </trkpt>
      <trkpt lat="44.4563" lon="3.13454">
        <ele>683.07389065651</ele>
        <time>2020-02-20T10:02:52Z</time>
      </trkpt>
      <trkpt lat="44.45627" lon="3.13467">
        <ele>684</ele>
        <time>2020-02-20T10:03:00Z</time>
      </trkpt>
      <trkpt lat="44.45625" lon="3.13481">
        <ele>684.13407225806</ele>
        <time>2020-02-20T10:03:08Z</time>
      </trkpt>
      <trkpt lat="44.45626" lon="3.13495">
        <ele>684.94052387097</ele>
        <time>2020-02-20T10:03:16Z</time>
      </trkpt>
      <trkpt lat="44.45625" lon="3.1351">
        <ele>685.72292674277</ele>
        <time>2020-02-20T10:03:24Z</time>
      </trkpt>
      <trkpt lat="44.45622" lon="3.13523">
        <ele>686.52279618309</ele>
        <time>2020-02-20T10:03:32Z</time>
      </trkpt>
      <trkpt lat="44.45618" lon="3.13536">
        <ele>687</ele>
        <time>2020-02-20T10:03:40Z</time>
      </trkpt>
      <trkpt lat="44.45615" lon="3.1355">
        <ele>687</ele>
        <time>2020-02-20T10:03:48Z</time>
      </trkpt>
      <trkpt lat="44.45613" lon="3.13564">
        <ele>687</ele>
        <time>2020-02-20T10:03:56Z</time>
      </trkpt>
      <trkpt lat="44.45611" lon="3.13578">
        <ele>687.73705576896</ele>
        <time>2020-02-20T10:04:04Z</time>
      </trkpt>
      <trkpt lat="44.45611" lon="3.13593">
        <ele>688</ele>
        <time>2020-02-20T10:04:12Z</time>
      </trkpt>
      <trkpt lat="44.45613" lon="3.13608">
        <ele>688</ele>
        <time>2020-02-20T10:04:20Z</time>
      </trkpt>
      <trkpt lat="44.45615" lon="3.13622">
        <ele>688.13664</ele>
        <time>2020-02-20T10:04:28Z</time>
      </trkpt>
      <trkpt lat="44.45617" lon="3.13637">
        <ele>688.94635659919</ele>
        <time>2020-02-20T10:04:36Z</time>
      </trkpt>
      <trkpt lat="44.4562" lon="3.13652">
        <ele>689.74328413717</ele>
        <time>2020-02-20T10:04:44Z</time>
      </trkpt>
      <trkpt lat="44.45621" lon="3.13666">
        <ele>690</ele>
        <time>2020-02-20T10:04:52Z</time>
      </trkpt>
      <trkpt lat="44.45622" lon="3.1368">
        <ele>690</ele>
        <time>2020-02-20T10:05:00Z</time>
      </trkpt>
      <trkpt lat="44.45635" lon="3.13688">
        <ele>692</ele>
        <time>2020-02-20T10:07:55Z</time>
      </trkpt>
      <trkpt lat="44.45646" lon="3.13689">
        <ele>692.9371254693</ele>
        <time>2020-02-20T10:08:06Z</time>
      </trkpt>
      <trkpt lat="44.45655" lon="3.13697">
        <ele>695.25682547366</ele>
        <time>2020-02-20T10:08:18Z</time>
      </trkpt>
      <trkpt lat="44.45664" lon="3.13702">
        <ele>698.01704955412</ele>
        <time>2020-02-20T10:08:30Z</time>
      </trkpt>
      <trkpt lat="44.45673" lon="3.1371">
        <ele>700.44144154533</ele>
        <time>2020-02-20T10:08:41Z</time>
      </trkpt>
      <trkpt lat="44.4568" lon="3.13717">
        <ele>701.88844321176</ele>
        <time>2020-02-20T10:08:51Z</time>
      </trkpt>
      <trkpt lat="44.4569" lon="3.13721">
        <ele>704.59320382558</ele>
        <time>2020-02-20T10:09:02Z</time>
      </trkpt>
      <trkpt lat="44.45698" lon="3.13726">
        <ele>707.03607216742</ele>
        <time>2020-02-20T10:09:12Z</time>
      </trkpt>
      <trkpt lat="44.45707" lon="3.1373">
        <ele>708.42711509681</ele>
        <time>2020-02-20T10:09:21Z</time>
      </trkpt>
      <trkpt lat="44.4572" lon="3.13732">
        <ele>709.63672631487</ele>
        <time>2020-02-20T10:09:33Z</time>
      </trkpt>
      <trkpt lat="44.45729" lon="3.13733">
        <ele>710.84251181681</ele>
        <time>2020-02-20T10:09:41Z</time>
      </trkpt>
      <trkpt lat="44.45739" lon="3.13731">
        <ele>713.86453033087</ele>
        <time>2020-02-20T10:09:53Z</time>
      </trkpt>
      <trkpt lat="44.45749" lon="3.13728">
        <ele>715</ele>
        <time>2020-02-20T10:10:04Z</time>
      </trkpt>
      <trkpt lat="44.45759" lon="3.13722">
        <ele>717.79166476191</ele>
        <time>2020-02-20T10:10:16Z</time>
      </trkpt>
      <trkpt lat="44.45768" lon="3.13715">
        <ele>719.26146441853</ele>
        <time>2020-02-20T10:10:28Z</time>
      </trkpt>
      <trkpt lat="44.45771" lon="3.13711">
        <ele>724</ele>
        <time>2020-02-20T10:12:44Z</time>
      </trkpt>
      <trkpt lat="44.45763" lon="3.13701">
        <ele>724</ele>
        <time>2020-02-20T10:13:00Z</time>
      </trkpt>
      <trkpt lat="44.45758" lon="3.13689">
        <ele>724</ele>
        <time>2020-02-20T10:13:11Z</time>
      </trkpt>
      <trkpt lat="44.45752" lon="3.13676">
        <ele>724.44174251129</ele>
        <time>2020-02-20T10:13:21Z</time>
      </trkpt>
      <trkpt lat="44.45749" lon="3.13662">
        <ele>725.43381598181</ele>
        <time>2020-02-20T10:13:31Z</time>
      </trkpt>
      <trkpt lat="44.45748" lon="3.13647">
        <ele>727.06418157461</ele>
        <time>2020-02-20T10:13:42Z</time>
      </trkpt>
      <trkpt lat="44.45751" lon="3.13635">
        <ele>730.00611062738</ele>
        <time>2020-02-20T10:13:57Z</time>
      </trkpt>
      <trkpt lat="44.4576" lon="3.1364">
        <ele>732.12410219517</ele>
        <time>2020-02-20T10:14:08Z</time>
      </trkpt>
      <trkpt lat="44.4577" lon="3.13645">
        <ele>733.49298500552</ele>
        <time>2020-02-20T10:14:19Z</time>
      </trkpt>
      <trkpt lat="44.45781" lon="3.13648">
        <ele>735</ele>
        <time>2020-02-20T10:14:29Z</time>
      </trkpt>
      <trkpt lat="44.45791" lon="3.1365">
        <ele>735.22337117738</ele>
        <time>2020-02-20T10:14:39Z</time>
      </trkpt>
      <trkpt lat="44.45802" lon="3.1365">
        <ele>736.69108891317</ele>
        <time>2020-02-20T10:14:50Z</time>
      </trkpt>
      <trkpt lat="44.45812" lon="3.13647">
        <ele>739.61538402521</ele>
        <time>2020-02-20T10:15:02Z</time>
      </trkpt>
      <trkpt lat="44.4582" lon="3.13636">
        <ele>741</ele>
        <time>2020-02-20T10:15:13Z</time>
      </trkpt>
      <trkpt lat="44.45821" lon="3.13621">
        <ele>743</ele>
        <time>2020-02-20T10:15:41Z</time>
      </trkpt>
      <trkpt lat="44.45827" lon="3.13608">
        <ele>744.23814321271</ele>
        <time>2020-02-20T10:17:09Z</time>
      </trkpt>
      <trkpt lat="44.45834" lon="3.136">
        <ele>745.04464253968</ele>
        <time>2020-02-20T10:17:17Z</time>
      </trkpt>
      <trkpt lat="44.45843" lon="3.13592">
        <ele>745.83829333333</ele>
        <time>2020-02-20T10:17:25Z</time>
      </trkpt>
      <trkpt lat="44.45851" lon="3.13585">
        <ele>746.64408481912</ele>
        <time>2020-02-20T10:17:33Z</time>
      </trkpt>
      <trkpt lat="44.4586" lon="3.13577">
        <ele>747.896</ele>
        <time>2020-02-20T10:17:41Z</time>
      </trkpt>
      <trkpt lat="44.4587" lon="3.1357">
        <ele>749</ele>
        <time>2020-02-20T10:17:51Z</time>
      </trkpt>
      <trkpt lat="44.45878" lon="3.13565">
        <ele>749</ele>
        <time>2020-02-20T10:17:59Z</time>
      </trkpt>
      <trkpt lat="44.45889" lon="3.13562">
        <ele>749.24141430858</ele>
        <time>2020-02-20T10:18:09Z</time>
      </trkpt>
      <trkpt lat="44.45899" lon="3.1356">
        <ele>750.04748031008</ele>
        <time>2020-02-20T10:18:17Z</time>
      </trkpt>
      <trkpt lat="44.45908" lon="3.13559">
        <ele>750.82267410853</ele>
        <time>2020-02-20T10:18:25Z</time>
      </trkpt>
      <trkpt lat="44.45918" lon="3.13559">
        <ele>751.62894992993</ele>
        <time>2020-02-20T10:18:33Z</time>
      </trkpt>
      <trkpt lat="44.45927" lon="3.13559">
        <ele>752.68369308687</ele>
        <time>2020-02-20T10:18:50Z</time>
      </trkpt>
      <trkpt lat="44.45936" lon="3.13562">
        <ele>754.42674555587</ele>
        <time>2020-02-20T10:19:11Z</time>
      </trkpt>
      <trkpt lat="44.45943" lon="3.1356">
        <ele>754.0560560381</ele>
        <time>2020-02-20T10:20:06Z</time>
      </trkpt>
      <trkpt lat="44.45952" lon="3.13558">
        <ele>754.80842911877</ele>
        <time>2020-02-20T10:20:15Z</time>
      </trkpt>
      <trkpt lat="44.45961" lon="3.13558">
        <ele>755.6243498437</ele>
        <time>2020-02-20T10:20:23Z</time>
      </trkpt>
      <trkpt lat="44.45972" lon="3.13556">
        <ele>756.63900032</ele>
        <time>2020-02-20T10:20:33Z</time>
      </trkpt>
      <trkpt lat="44.45983" lon="3.13556">
        <ele>758.26534636651</ele>
        <time>2020-02-20T10:20:43Z</time>
      </trkpt>
      <trkpt lat="44.45992" lon="3.13556">
        <ele>759.42899968</ele>
        <time>2020-02-20T10:20:51Z</time>
      </trkpt>
      <trkpt lat="44.46001" lon="3.13554">
        <ele>760</ele>
        <time>2020-02-20T10:20:59Z</time>
      </trkpt>
      <trkpt lat="44.46012" lon="3.13552">
        <ele>760.47887226004</ele>
        <time>2020-02-20T10:21:09Z</time>
      </trkpt>
      <trkpt lat="44.46022" lon="3.13549">
        <ele>763.51530061688</ele>
        <time>2020-02-20T10:22:22Z</time>
      </trkpt>
      <trkpt lat="44.46033" lon="3.1355">
        <ele>766</ele>
        <time>2020-02-20T10:22:43Z</time>
      </trkpt>
      <trkpt lat="44.46041" lon="3.13549">
        <ele>766.22528007349</ele>
        <time>2020-02-20T10:23:39Z</time>
      </trkpt>
      <trkpt lat="44.46052" lon="3.1355">
        <ele>767.6752728738</ele>
        <time>2020-02-20T10:23:50Z</time>
      </trkpt>
      <trkpt lat="44.46061" lon="3.13548">
        <ele>769</ele>
        <time>2020-02-20T10:23:58Z</time>
      </trkpt>
      <trkpt lat="44.46071" lon="3.13544">
        <ele>769.12807830833</ele>
        <time>2020-02-20T10:24:08Z</time>
      </trkpt>
      <trkpt lat="44.4608" lon="3.13537">
        <ele>770.62436519859</ele>
        <time>2020-02-20T10:24:23Z</time>
      </trkpt>
      <trkpt lat="44.46091" lon="3.13533">
        <ele>771.94224950817</ele>
        <time>2020-02-20T10:24:36Z</time>
      </trkpt>
      <trkpt lat="44.46101" lon="3.13531">
        <ele>773.47567047446</ele>
        <time>2020-02-20T10:24:44Z</time>
      </trkpt>
      <trkpt lat="44.4611" lon="3.13529">
        <ele>775.43890473074</ele>
        <time>2020-02-20T10:24:54Z</time>
      </trkpt>
      <trkpt lat="44.46119" lon="3.13525">
        <ele>776.63195884995</ele>
        <time>2020-02-20T10:25:03Z</time>
      </trkpt>
      <trkpt lat="44.46129" lon="3.13521">
        <ele>777.74300032</ele>
        <time>2020-02-20T10:25:14Z</time>
      </trkpt>
      <trkpt lat="44.4614" lon="3.13519">
        <ele>778.74748475011</ele>
        <time>2020-02-20T10:25:24Z</time>
      </trkpt>
      <trkpt lat="44.4615" lon="3.1352">
        <ele>780.43212263533</ele>
        <time>2020-02-20T10:25:34Z</time>
      </trkpt>
      <trkpt lat="44.4616" lon="3.13521">
        <ele>782.0490097021</ele>
        <time>2020-02-20T10:25:42Z</time>
      </trkpt>
      <trkpt lat="44.4617" lon="3.13523">
        <ele>783.88358237089</ele>
        <time>2020-02-20T10:25:51Z</time>
      </trkpt>
      <trkpt lat="44.46174" lon="3.13517">
        <ele>787.01546423722</ele>
        <time>2020-02-20T10:29:17Z</time>
      </trkpt>
      <trkpt lat="44.46178" lon="3.13504">
        <ele>788.64629267898</ele>
        <time>2020-02-20T10:29:33Z</time>
      </trkpt>
      <trkpt lat="44.46182" lon="3.13492">
        <ele>790.23946421456</ele>
        <time>2020-02-20T10:29:43Z</time>
      </trkpt>
      <trkpt lat="44.46186" lon="3.13478">
        <ele>792.46764060617</ele>
        <time>2020-02-20T10:29:54Z</time>
      </trkpt>
      <trkpt lat="44.46192" lon="3.13467">
        <ele>794.49598329317</ele>
        <time>2020-02-20T10:30:04Z</time>
      </trkpt>
      <trkpt lat="44.46197" lon="3.13454">
        <ele>795.73503380254</ele>
        <time>2020-02-20T10:30:14Z</time>
      </trkpt>
      <trkpt lat="44.46203" lon="3.13442">
        <ele>797.48827644877</ele>
        <time>2020-02-20T10:30:24Z</time>
      </trkpt>
      <trkpt lat="44.4621" lon="3.13431">
        <ele>799.66633839722</ele>
        <time>2020-02-20T10:30:35Z</time>
      </trkpt>
      <trkpt lat="44.46218" lon="3.13421">
        <ele>802.83248628061</ele>
        <time>2020-02-20T10:30:46Z</time>
      </trkpt>
      <trkpt lat="44.46228" lon="3.13415">
        <ele>804.89189064524</ele>
        <time>2020-02-20T10:30:56Z</time>
      </trkpt>
      <trkpt lat="44.46237" lon="3.1341">
        <ele>807.24473299731</ele>
        <time>2020-02-20T10:31:04Z</time>
      </trkpt>
      <trkpt lat="44.46245" lon="3.13405">
        <ele>809.0775260208</ele>
        <time>2020-02-20T10:31:12Z</time>
      </trkpt>
      <trkpt lat="44.46255" lon="3.13399">
        <ele>811.59638566604</ele>
        <time>2020-02-20T10:31:22Z</time>
      </trkpt>
      <trkpt lat="44.46267" lon="3.1339">
        <ele>814</ele>
        <time>2020-02-20T10:37:24Z</time>
      </trkpt>
      <trkpt lat="44.46275" lon="3.13381">
        <ele>814.82880113228</ele>
        <time>2020-02-20T10:37:55Z</time>
      </trkpt>
      <trkpt lat="44.46284" lon="3.13377">
        <ele>815</ele>
        <time>2020-02-20T10:38:03Z</time>
      </trkpt>
      <trkpt lat="44.46294" lon="3.13374">
        <ele>815.41910295149</ele>
        <time>2020-02-20T10:38:11Z</time>
      </trkpt>
      <trkpt lat="44.46303" lon="3.13373">
        <ele>816.42722498774</ele>
        <time>2020-02-20T10:38:19Z</time>
      </trkpt>
      <trkpt lat="44.46314" lon="3.13373">
        <ele>818.24899968</ele>
        <time>2020-02-20T10:38:29Z</time>
      </trkpt>
      <trkpt lat="44.46324" lon="3.13373">
        <ele>819.24899968</ele>
        <time>2020-02-20T10:38:39Z</time>
      </trkpt>
      <trkpt lat="44.46336" lon="3.13372">
        <ele>820.49799936</ele>
        <time>2020-02-20T10:38:49Z</time>
      </trkpt>
      <trkpt lat="44.46345" lon="3.1337">
        <ele>822.04837087411</ele>
        <time>2020-02-20T10:38:57Z</time>
      </trkpt>
      <trkpt lat="44.46354" lon="3.13368">
        <ele>822.93682130285</ele>
        <time>2020-02-20T10:39:06Z</time>
      </trkpt>
      <trkpt lat="44.46364" lon="3.13367">
        <ele>823</ele>
        <time>2020-02-20T10:39:16Z</time>
      </trkpt>
      <trkpt lat="44.46375" lon="3.13365">
        <ele>823</ele>
        <time>2020-02-20T10:39:26Z</time>
      </trkpt>
      <trkpt lat="44.46385" lon="3.13364">
        <ele>824.46053869918</ele>
        <time>2020-02-20T10:39:34Z</time>
      </trkpt>
      <trkpt lat="44.46394" lon="3.13361">
        <ele>826.83673339918</ele>
        <time>2020-02-20T10:39:43Z</time>
      </trkpt>
      <trkpt lat="44.46402" lon="3.13357">
        <ele>829.042663573</ele>
        <time>2020-02-20T10:39:52Z</time>
      </trkpt>
      <trkpt lat="44.46412" lon="3.1335">
        <ele>830.54490396128</ele>
        <time>2020-02-20T10:40:02Z</time>
      </trkpt>
      <trkpt lat="44.46416" lon="3.13343">
        <ele>832.77981644194</ele>
        <time>2020-02-20T10:41:29Z</time>
      </trkpt>
      <trkpt lat="44.46425" lon="3.13336">
        <ele>832</ele>
        <time>2020-02-20T10:41:39Z</time>
      </trkpt>
      <trkpt lat="44.46434" lon="3.13329">
        <ele>832.08275985568</ele>
        <time>2020-02-20T10:41:47Z</time>
      </trkpt>
      <trkpt lat="44.46442" lon="3.13323">
        <ele>833.65911403851</ele>
        <time>2020-02-20T10:41:55Z</time>
      </trkpt>
      <trkpt lat="44.46451" lon="3.13318">
        <ele>834</ele>
        <time>2020-02-20T10:42:03Z</time>
      </trkpt>
      <trkpt lat="44.4646" lon="3.13313">
        <ele>834.44710550285</ele>
        <time>2020-02-20T10:42:11Z</time>
      </trkpt>
      <trkpt lat="44.46469" lon="3.13307">
        <ele>835</ele>
        <time>2020-02-20T10:42:19Z</time>
      </trkpt>
      <trkpt lat="44.46476" lon="3.13299">
        <ele>835</ele>
        <time>2020-02-20T10:42:27Z</time>
      </trkpt>
      <trkpt lat="44.46483" lon="3.13289">
        <ele>835</ele>
        <time>2020-02-20T10:42:35Z</time>
      </trkpt>
      <trkpt lat="44.46487" lon="3.13276">
        <ele>835.63815131191</ele>
        <time>2020-02-20T10:42:43Z</time>
      </trkpt>
      <trkpt lat="44.46489" lon="3.13263">
        <ele>836.43286600905</ele>
        <time>2020-02-20T10:42:51Z</time>
      </trkpt>
      <trkpt lat="44.46488" lon="3.13249">
        <ele>837.23708263843</ele>
        <time>2020-02-20T10:42:59Z</time>
      </trkpt>
      <trkpt lat="44.46485" lon="3.13236">
        <ele>838.09362613546</ele>
        <time>2020-02-20T10:43:07Z</time>
      </trkpt>
      <trkpt lat="44.46481" lon="3.13223">
        <ele>839.68725163347</ele>
        <time>2020-02-20T10:43:15Z</time>
      </trkpt>
      <trkpt lat="44.46479" lon="3.13209">
        <ele>840</ele>
        <time>2020-02-20T10:43:23Z</time>
      </trkpt>
      <trkpt lat="44.46479" lon="3.13195">
        <ele>840.44855127226</ele>
        <time>2020-02-20T10:43:31Z</time>
      </trkpt>
      <trkpt lat="44.4648" lon="3.13181">
        <ele>841.44225088008</ele>
        <time>2020-02-20T10:43:41Z</time>
      </trkpt>
      <trkpt lat="44.46481" lon="3.13168">
        <ele>842.94949562861</ele>
        <time>2020-02-20T10:43:49Z</time>
      </trkpt>
      <trkpt lat="44.46483" lon="3.13152">
        <ele>846</ele>
        <time>2020-02-20T10:43:59Z</time>
      </trkpt>
      <trkpt lat="44.46486" lon="3.13137">
        <ele>846.49799936</ele>
        <time>2020-02-20T10:44:09Z</time>
      </trkpt>
      <trkpt lat="44.46488" lon="3.13123">
        <ele>850</ele>
        <time>2020-02-20T10:45:31Z</time>
      </trkpt>
      <trkpt lat="44.46493" lon="3.13111">
        <ele>850.88844321176</ele>
        <time>2020-02-20T10:45:41Z</time>
      </trkpt>
      <trkpt lat="44.465" lon="3.13102">
        <ele>852</ele>
        <time>2020-02-20T10:45:52Z</time>
      </trkpt>
      <trkpt lat="44.46507" lon="3.13106">
        <ele>853.22457210918</ele>
        <time>2020-02-20T10:48:39Z</time>
      </trkpt>
      <trkpt lat="44.46518" lon="3.13109">
        <ele>854.23022981083</ele>
        <time>2020-02-20T10:48:49Z</time>
      </trkpt>
      <trkpt lat="44.46528" lon="3.13115">
        <ele>855.23523438844</ele>
        <time>2020-02-20T10:48:59Z</time>
      </trkpt>
      <trkpt lat="44.46535" lon="3.13123">
        <ele>856.09404934759</ele>
        <time>2020-02-20T10:49:07Z</time>
      </trkpt>
      <trkpt lat="44.46542" lon="3.13134">
        <ele>858.00722426529</ele>
        <time>2020-02-20T10:49:17Z</time>
      </trkpt>
      <trkpt lat="44.4655" lon="3.13144">
        <ele>859.0760748679</ele>
        <time>2020-02-20T10:49:27Z</time>
      </trkpt>
      <trkpt lat="44.46557" lon="3.13152">
        <ele>861.03869079365</ele>
        <time>2020-02-20T10:49:37Z</time>
      </trkpt>
      <trkpt lat="44.46566" lon="3.13161">
        <ele>862.06313706679</ele>
        <time>2020-02-20T10:49:47Z</time>
      </trkpt>
      <trkpt lat="44.46573" lon="3.13172">
        <ele>864.09780381497</ele>
        <time>2020-02-20T10:49:57Z</time>
      </trkpt>
      <trkpt lat="44.46582" lon="3.13181">
        <ele>866.29282932271</ele>
        <time>2020-02-20T10:50:08Z</time>
      </trkpt>
      <trkpt lat="44.46589" lon="3.13189">
        <ele>868</ele>
        <time>2020-02-20T10:50:17Z</time>
      </trkpt>
      <trkpt lat="44.46598" lon="3.13197">
        <ele>868.28052527773</ele>
        <time>2020-02-20T10:50:28Z</time>
      </trkpt>
      <trkpt lat="44.46606" lon="3.13205">
        <ele>870.14726372848</ele>
        <time>2020-02-20T10:50:38Z</time>
      </trkpt>
      <trkpt lat="44.46614" lon="3.13215">
        <ele>871.1354169697</ele>
        <time>2020-02-20T10:50:48Z</time>
      </trkpt>
      <trkpt lat="44.46621" lon="3.13222">
        <ele>871.98768969697</ele>
        <time>2020-02-20T10:50:57Z</time>
      </trkpt>
      <trkpt lat="44.4663" lon="3.13231">
        <ele>874.03861853658</ele>
        <time>2020-02-20T10:51:47Z</time>
      </trkpt>
      <trkpt lat="44.46637" lon="3.13239">
        <ele>876.03078481643</ele>
        <time>2020-02-20T10:52:07Z</time>
      </trkpt>
      <trkpt lat="44.46645" lon="3.13248">
        <ele>877.1266598156</ele>
        <time>2020-02-20T10:52:18Z</time>
      </trkpt>
      <trkpt lat="44.46653" lon="3.13257">
        <ele>878.14558200803</ele>
        <time>2020-02-20T10:52:28Z</time>
      </trkpt>
      <trkpt lat="44.46661" lon="3.13265">
        <ele>878.94879485944</ele>
        <time>2020-02-20T10:52:36Z</time>
      </trkpt>
      <trkpt lat="44.4667" lon="3.13273">
        <ele>879.93960423896</ele>
        <time>2020-02-20T10:52:46Z</time>
      </trkpt>
      <trkpt lat="44.46679" lon="3.13278">
        <ele>880.73900032</ele>
        <time>2020-02-20T10:52:54Z</time>
      </trkpt>
      <trkpt lat="44.46688" lon="3.13283">
        <ele>881.54279939467</ele>
        <time>2020-02-20T10:53:02Z</time>
      </trkpt>
      <trkpt lat="44.46698" lon="3.13287">
        <ele>883.73240794538</ele>
        <time>2020-02-20T10:55:04Z</time>
      </trkpt>
      <trkpt lat="44.46707" lon="3.13292">
        <ele>884</ele>
        <time>2020-02-20T10:55:12Z</time>
      </trkpt>
      <trkpt lat="44.46717" lon="3.13298">
        <ele>884.54389520278</ele>
        <time>2020-02-20T10:55:22Z</time>
      </trkpt>
      <trkpt lat="44.46726" lon="3.13302">
        <ele>885.34834823676</ele>
        <time>2020-02-20T10:55:30Z</time>
      </trkpt>
      <trkpt lat="44.46735" lon="3.13307">
        <ele>886.14840605578</ele>
        <time>2020-02-20T10:55:38Z</time>
      </trkpt>
      <trkpt lat="44.46744" lon="3.13312">
        <ele>886.94521880478</ele>
        <time>2020-02-20T10:55:46Z</time>
      </trkpt>
      <trkpt lat="44.46754" lon="3.13316">
        <ele>887</ele>
        <time>2020-02-20T10:55:54Z</time>
      </trkpt>
      <trkpt lat="44.46763" lon="3.13321">
        <ele>888.07662014829</ele>
        <time>2020-02-20T10:56:02Z</time>
      </trkpt>
      <trkpt lat="44.46772" lon="3.13322">
        <ele>889</ele>
        <time>2020-02-20T10:56:10Z</time>
      </trkpt>
      <trkpt lat="44.4678" lon="3.13323">
        <ele>889</ele>
        <time>2020-02-20T10:57:38Z</time>
      </trkpt>
      <trkpt lat="44.4679" lon="3.13324">
        <ele>889.14781714286</ele>
        <time>2020-02-20T10:57:48Z</time>
      </trkpt>
      <trkpt lat="44.46801" lon="3.13326">
        <ele>889.94146793651</ele>
        <time>2020-02-20T10:57:56Z</time>
      </trkpt>
      <trkpt lat="44.46811" lon="3.13327">
        <ele>890</ele>
        <time>2020-02-20T10:58:04Z</time>
      </trkpt>
      <trkpt lat="44.46822" lon="3.13328">
        <ele>890</ele>
        <time>2020-02-20T10:58:12Z</time>
      </trkpt>
      <trkpt lat="44.46832" lon="3.13327">
        <ele>890.67198405295</ele>
        <time>2020-02-20T10:58:20Z</time>
      </trkpt>
      <trkpt lat="44.46843" lon="3.13325">
        <ele>892</ele>
        <time>2020-02-20T10:58:28Z</time>
      </trkpt>
      <trkpt lat="44.46854" lon="3.13322">
        <ele>892</ele>
        <time>2020-02-20T10:58:36Z</time>
      </trkpt>
      <trkpt lat="44.46863" lon="3.1332">
        <ele>892</ele>
        <time>2020-02-20T10:58:44Z</time>
      </trkpt>
      <trkpt lat="44.46874" lon="3.13318">
        <ele>892.53557307754</ele>
        <time>2020-02-20T10:58:52Z</time>
      </trkpt>
      <trkpt lat="44.46884" lon="3.13316">
        <ele>893.33333290236</ele>
        <time>2020-02-20T10:59:00Z</time>
      </trkpt>
      <trkpt lat="44.46894" lon="3.13312">
        <ele>894</ele>
        <time>2020-02-20T10:59:08Z</time>
      </trkpt>
      <trkpt lat="44.46903" lon="3.13307">
        <ele>894</ele>
        <time>2020-02-20T10:59:16Z</time>
      </trkpt>
      <trkpt lat="44.46913" lon="3.13303">
        <ele>894.74059359012</ele>
        <time>2020-02-20T10:59:24Z</time>
      </trkpt>
      <trkpt lat="44.46923" lon="3.133">
        <ele>895</ele>
        <time>2020-02-20T10:59:32Z</time>
      </trkpt>
      <trkpt lat="44.46933" lon="3.13297">
        <ele>895.67676788573</ele>
        <time>2020-02-20T10:59:40Z</time>
      </trkpt>
      <trkpt lat="44.46942" lon="3.13296">
        <ele>897.14456612042</ele>
        <time>2020-02-20T10:59:48Z</time>
      </trkpt>
      <trkpt lat="44.46953" lon="3.13294">
        <ele>897.9421740623</ele>
        <time>2020-02-20T10:59:56Z</time>
      </trkpt>
      <trkpt lat="44.46963" lon="3.13294">
        <ele>898.73904351994</ele>
        <time>2020-02-20T11:00:04Z</time>
      </trkpt>
      <trkpt lat="44.46973" lon="3.13292">
        <ele>899.54398335094</ele>
        <time>2020-02-20T11:00:12Z</time>
      </trkpt>
      <trkpt lat="44.46982" lon="3.13288">
        <ele>900</ele>
        <time>2020-02-20T11:00:20Z</time>
      </trkpt>
      <trkpt lat="44.4699" lon="3.13282">
        <ele>901</ele>
        <time>2020-02-20T11:01:48Z</time>
      </trkpt>
      <trkpt lat="44.46998" lon="3.13275">
        <ele>901</ele>
        <time>2020-02-20T11:01:56Z</time>
      </trkpt>
      <trkpt lat="44.47007" lon="3.13267">
        <ele>902.48827644877</ele>
        <time>2020-02-20T11:02:04Z</time>
      </trkpt>
      <trkpt lat="44.47015" lon="3.13258">
        <ele>903</ele>
        <time>2020-02-20T11:02:12Z</time>
      </trkpt>
      <trkpt lat="44.47023" lon="3.1325">
        <ele>903.33896610034</ele>
        <time>2020-02-20T11:02:20Z</time>
      </trkpt>
      <trkpt lat="44.4703" lon="3.13241">
        <ele>904.13677839537</ele>
        <time>2020-02-20T11:02:28Z</time>
      </trkpt>
      <trkpt lat="44.47037" lon="3.13231">
        <ele>904.94731511333</ele>
        <time>2020-02-20T11:02:36Z</time>
      </trkpt>
      <trkpt lat="44.47043" lon="3.13222">
        <ele>905</ele>
        <time>2020-02-20T11:02:44Z</time>
      </trkpt>
      <trkpt lat="44.47049" lon="3.13212">
        <ele>905.54764246263</ele>
        <time>2020-02-20T11:02:52Z</time>
      </trkpt>
      <trkpt lat="44.47056" lon="3.132">
        <ele>907.09799936</ele>
        <time>2020-02-20T11:03:02Z</time>
      </trkpt>
      <trkpt lat="44.47062" lon="3.1319">
        <ele>908.34899968</ele>
        <time>2020-02-20T11:03:10Z</time>
      </trkpt>
      <trkpt lat="44.47067" lon="3.13179">
        <ele>909.14811110814</ele>
        <time>2020-02-20T11:03:18Z</time>
      </trkpt>
      <trkpt lat="44.47074" lon="3.13169">
        <ele>909.94334024228</ele>
        <time>2020-02-20T11:03:26Z</time>
      </trkpt>
      <trkpt lat="44.47079" lon="3.13158">
        <ele>911.44693298635</ele>
        <time>2020-02-20T11:03:34Z</time>
      </trkpt>
      <trkpt lat="44.47084" lon="3.13146">
        <ele>912.52653061224</ele>
        <time>2020-02-20T11:03:42Z</time>
      </trkpt>
      <trkpt lat="44.47089" lon="3.13134">
        <ele>913</ele>
        <time>2020-02-20T11:03:50Z</time>
      </trkpt>
      <trkpt lat="44.47094" lon="3.13122">
        <ele>913</ele>
        <time>2020-02-20T11:03:58Z</time>
      </trkpt>
      <trkpt lat="44.47098" lon="3.13109">
        <ele>913</ele>
        <time>2020-02-20T11:04:06Z</time>
      </trkpt>
      <trkpt lat="44.47103" lon="3.13098">
        <ele>913.74899968</ele>
        <time>2020-02-20T11:04:14Z</time>
      </trkpt>
      <trkpt lat="44.47107" lon="3.13086">
        <ele>915.09799936</ele>
        <time>2020-02-20T11:04:22Z</time>
      </trkpt>
      <trkpt lat="44.47114" lon="3.13077">
        <ele>916.69383678335</ele>
        <time>2020-02-20T11:04:30Z</time>
      </trkpt>
      <trkpt lat="44.47119" lon="3.13067">
        <ele>918.28288877297</ele>
        <time>2020-02-20T11:04:38Z</time>
      </trkpt>
      <trkpt lat="44.47125" lon="3.13057">
        <ele>919.86547976562</ele>
        <time>2020-02-20T11:04:46Z</time>
      </trkpt>
      <trkpt lat="44.4713" lon="3.13046">
        <ele>920</ele>
        <time>2020-02-20T11:04:54Z</time>
      </trkpt>
      <trkpt lat="44.47136" lon="3.13033">
        <ele>920</ele>
        <time>2020-02-20T11:05:04Z</time>
      </trkpt>
      <trkpt lat="44.47142" lon="3.1302">
        <ele>921.49598329317</ele>
        <time>2020-02-20T11:05:14Z</time>
      </trkpt>
      <trkpt lat="44.4715" lon="3.1301">
        <ele>922</ele>
        <time>2020-02-20T11:05:24Z</time>
      </trkpt>
      <trkpt lat="44.47158" lon="3.13001">
        <ele>922.73313523809</ele>
        <time>2020-02-20T11:05:34Z</time>
      </trkpt>
      <trkpt lat="44.47167" lon="3.12997">
        <ele>924.27217806452</ele>
        <time>2020-02-20T11:05:43Z</time>
      </trkpt>
      <trkpt lat="44.47177" lon="3.12992">
        <ele>925.63392888889</ele>
        <time>2020-02-20T11:05:53Z</time>
      </trkpt>
      <trkpt lat="44.47186" lon="3.12986">
        <ele>926</ele>
        <time>2020-02-20T11:06:03Z</time>
      </trkpt>
      <trkpt lat="44.47196" lon="3.12978">
        <ele>928</ele>
        <time>2020-02-20T11:06:29Z</time>
      </trkpt>
      <trkpt lat="44.47203" lon="3.12967">
        <ele>929</ele>
        <time>2020-02-20T11:34:21Z</time>
      </trkpt>
      <trkpt lat="44.47205" lon="3.12955">
        <ele>929</ele>
        <time>2020-02-20T11:34:30Z</time>
      </trkpt>
      <trkpt lat="44.47207" lon="3.12939">
        <ele>929</ele>
        <time>2020-02-20T11:34:45Z</time>
      </trkpt>
      <trkpt lat="44.47209" lon="3.12925">
        <ele>929</ele>
        <time>2020-02-20T11:34:53Z</time>
      </trkpt>
      <trkpt lat="44.47211" lon="3.12911">
        <ele>929</ele>
        <time>2020-02-20T11:35:01Z</time>
      </trkpt>
      <trkpt lat="44.47213" lon="3.12898">
        <ele>929</ele>
        <time>2020-02-20T11:35:09Z</time>
      </trkpt>
      <trkpt lat="44.47216" lon="3.12884">
        <ele>929</ele>
        <time>2020-02-20T11:35:17Z</time>
      </trkpt>
      <trkpt lat="44.47219" lon="3.12872">
        <ele>929</ele>
        <time>2020-02-20T11:35:25Z</time>
      </trkpt>
      <trkpt lat="44.47221" lon="3.12859">
        <ele>929</ele>
        <time>2020-02-20T11:35:33Z</time>
      </trkpt>
      <trkpt lat="44.47224" lon="3.12846">
        <ele>929</ele>
        <time>2020-02-20T11:35:41Z</time>
      </trkpt>
      <trkpt lat="44.47227" lon="3.12834">
        <ele>931.23429352445</ele>
        <time>2020-02-20T11:35:49Z</time>
      </trkpt>
      <trkpt lat="44.4723" lon="3.1282">
        <ele>938</ele>
        <time>2020-02-20T11:35:59Z</time>
      </trkpt>
      <trkpt lat="44.47232" lon="3.12807">
        <ele>938.06700444816</ele>
        <time>2020-02-20T11:36:07Z</time>
      </trkpt>
      <trkpt lat="44.47236" lon="3.12796">
        <ele>939.89441620935</ele>
        <time>2020-02-20T11:36:16Z</time>
      </trkpt>
      <trkpt lat="44.4724" lon="3.12783">
        <ele>940.94328388244</ele>
        <time>2020-02-20T11:36:26Z</time>
      </trkpt>
      <trkpt lat="44.47244" lon="3.1277">
        <ele>942.02851195341</ele>
        <time>2020-02-20T11:36:37Z</time>
      </trkpt>
      <trkpt lat="44.47249" lon="3.12756">
        <ele>944.13333341953</ele>
        <time>2020-02-20T11:36:48Z</time>
      </trkpt>
      <trkpt lat="44.47253" lon="3.12744">
        <ele>945.28091116727</ele>
        <time>2020-02-20T11:36:58Z</time>
      </trkpt>
      <trkpt lat="44.47257" lon="3.12732">
        <ele>947.26572055775</ele>
        <time>2020-02-20T11:37:08Z</time>
      </trkpt>
      <trkpt lat="44.47261" lon="3.1272">
        <ele>949</ele>
        <time>2020-02-20T11:37:19Z</time>
      </trkpt>
      <trkpt lat="44.47265" lon="3.12707">
        <ele>949.24039401288</ele>
        <time>2020-02-20T11:37:29Z</time>
      </trkpt>
      <trkpt lat="44.47269" lon="3.12693">
        <ele>951.27327870445</ele>
        <time>2020-02-20T11:37:43Z</time>
      </trkpt>
      <trkpt lat="44.4727" lon="3.1268">
        <ele>952.64292867175</ele>
        <time>2020-02-20T11:37:53Z</time>
      </trkpt>
      <trkpt lat="44.47267" lon="3.12665">
        <ele>953.74698795181</ele>
        <time>2020-02-20T11:38:04Z</time>
      </trkpt>
      <trkpt lat="44.47262" lon="3.12653">
        <ele>954.54473195689</ele>
        <time>2020-02-20T11:38:12Z</time>
      </trkpt>
      <trkpt lat="44.47257" lon="3.12642">
        <ele>955</ele>
        <time>2020-02-20T11:38:20Z</time>
      </trkpt>
      <trkpt lat="44.47252" lon="3.1263">
        <ele>955</ele>
        <time>2020-02-20T11:38:28Z</time>
      </trkpt>
      <trkpt lat="44.47247" lon="3.12619">
        <ele>955</ele>
        <time>2020-02-20T11:38:36Z</time>
      </trkpt>
      <trkpt lat="44.47241" lon="3.12608">
        <ele>955</ele>
        <time>2020-02-20T11:38:44Z</time>
      </trkpt>
      <trkpt lat="44.47234" lon="3.12598">
        <ele>956.08157070101</ele>
        <time>2020-02-20T11:38:52Z</time>
      </trkpt>
      <trkpt lat="44.47227" lon="3.1259">
        <ele>957</ele>
        <time>2020-02-20T11:39:00Z</time>
      </trkpt>
      <trkpt lat="44.47219" lon="3.12582">
        <ele>957.14228511918</ele>
        <time>2020-02-20T11:39:08Z</time>
      </trkpt>
      <trkpt lat="44.47212" lon="3.12571">
        <ele>958.14229249012</ele>
        <time>2020-02-20T11:39:18Z</time>
      </trkpt>
      <trkpt lat="44.47204" lon="3.12561">
        <ele>959.13428276402</ele>
        <time>2020-02-20T11:39:28Z</time>
      </trkpt>
      <trkpt lat="44.47197" lon="3.12549">
        <ele>960.29475693935</ele>
        <time>2020-02-20T11:39:38Z</time>
      </trkpt>
      <trkpt lat="44.47193" lon="3.12535">
        <ele>962.13869295793</ele>
        <time>2020-02-20T11:39:48Z</time>
      </trkpt>
      <trkpt lat="44.47189" lon="3.12522">
        <ele>963.28542959813</ele>
        <time>2020-02-20T11:39:58Z</time>
      </trkpt>
      <trkpt lat="44.47187" lon="3.12508">
        <ele>965.14142399725</ele>
        <time>2020-02-20T11:40:08Z</time>
      </trkpt>
      <trkpt lat="44.47186" lon="3.12495">
        <ele>965.94383147645</ele>
        <time>2020-02-20T11:40:16Z</time>
      </trkpt>
      <trkpt lat="44.47186" lon="3.12482">
        <ele>966.74698795181</ele>
        <time>2020-02-20T11:40:24Z</time>
      </trkpt>
      <trkpt lat="44.47188" lon="3.12469">
        <ele>967</ele>
        <time>2020-02-20T11:40:32Z</time>
      </trkpt>
      <trkpt lat="44.47189" lon="3.12457">
        <ele>967.67278178929</ele>
        <time>2020-02-20T11:40:40Z</time>
      </trkpt>
      <trkpt lat="44.47191" lon="3.12444">
        <ele>969</ele>
        <time>2020-02-20T11:40:48Z</time>
      </trkpt>
      <trkpt lat="44.47194" lon="3.1243">
        <ele>970.70057563183</ele>
        <time>2020-02-20T11:41:34Z</time>
      </trkpt>
      <trkpt lat="44.47198" lon="3.12415">
        <ele>971.83122362869</ele>
        <time>2020-02-20T11:41:45Z</time>
      </trkpt>
      <trkpt lat="44.47203" lon="3.12402">
        <ele>972</ele>
        <time>2020-02-20T11:41:55Z</time>
      </trkpt>
      <trkpt lat="44.4721" lon="3.12392">
        <ele>972.14048784874</ele>
        <time>2020-02-20T11:42:08Z</time>
      </trkpt>
      <trkpt lat="44.47213" lon="3.12386">
        <ele>974</ele>
        <time>2020-02-20T11:43:54Z</time>
      </trkpt>
      <trkpt lat="44.4722" lon="3.12375">
        <ele>974</ele>
        <time>2020-02-20T11:44:04Z</time>
      </trkpt>
      <trkpt lat="44.47226" lon="3.12365">
        <ele>974.53346666121</ele>
        <time>2020-02-20T11:44:12Z</time>
      </trkpt>
      <trkpt lat="44.47231" lon="3.12354">
        <ele>975.33233522225</ele>
        <time>2020-02-20T11:44:20Z</time>
      </trkpt>
      <trkpt lat="44.47236" lon="3.12342">
        <ele>976</ele>
        <time>2020-02-20T11:44:28Z</time>
      </trkpt>
      <trkpt lat="44.4724" lon="3.12329">
        <ele>976</ele>
        <time>2020-02-20T11:44:36Z</time>
      </trkpt>
      <trkpt lat="44.47244" lon="3.12316">
        <ele>976</ele>
        <time>2020-02-20T11:44:44Z</time>
      </trkpt>
      <trkpt lat="44.47248" lon="3.12303">
        <ele>976</ele>
        <time>2020-02-20T11:44:52Z</time>
      </trkpt>
      <trkpt lat="44.47252" lon="3.12289">
        <ele>976.33832345656</ele>
        <time>2020-02-20T11:45:00Z</time>
      </trkpt>
      <trkpt lat="44.47255" lon="3.12277">
        <ele>977.13604730533</ele>
        <time>2020-02-20T11:45:08Z</time>
      </trkpt>
      <trkpt lat="44.47259" lon="3.12263">
        <ele>977.93048598038</ele>
        <time>2020-02-20T11:45:16Z</time>
      </trkpt>
      <trkpt lat="44.47262" lon="3.12251">
        <ele>979.45999872</ele>
        <time>2020-02-20T11:45:24Z</time>
      </trkpt>
      <trkpt lat="44.47265" lon="3.12237">
        <ele>980.54026455951</ele>
        <time>2020-02-20T11:45:32Z</time>
      </trkpt>
      <trkpt lat="44.47267" lon="3.12224">
        <ele>981.34830329632</ele>
        <time>2020-02-20T11:45:40Z</time>
      </trkpt>
      <trkpt lat="44.47271" lon="3.12212">
        <ele>982.29312118265</ele>
        <time>2020-02-20T11:45:48Z</time>
      </trkpt>
      <trkpt lat="44.47274" lon="3.12199">
        <ele>983.88833503064</ele>
        <time>2020-02-20T11:45:56Z</time>
      </trkpt>
      <trkpt lat="44.47277" lon="3.12186">
        <ele>984.74773845299</ele>
        <time>2020-02-20T11:46:04Z</time>
      </trkpt>
      <trkpt lat="44.47281" lon="3.12173">
        <ele>985</ele>
        <time>2020-02-20T11:46:12Z</time>
      </trkpt>
      <trkpt lat="44.47285" lon="3.12159">
        <ele>985.34899968</ele>
        <time>2020-02-20T11:46:20Z</time>
      </trkpt>
      <trkpt lat="44.47289" lon="3.12147">
        <ele>986.14899968</ele>
        <time>2020-02-20T11:46:28Z</time>
      </trkpt>
      <trkpt lat="44.47292" lon="3.12133">
        <ele>986.94899968</ele>
        <time>2020-02-20T11:46:36Z</time>
      </trkpt>
      <trkpt lat="44.47295" lon="3.1212">
        <ele>988.48463809225</ele>
        <time>2020-02-20T11:46:44Z</time>
      </trkpt>
      <trkpt lat="44.47298" lon="3.12107">
        <ele>989</ele>
        <time>2020-02-20T11:46:52Z</time>
      </trkpt>
      <trkpt lat="44.47301" lon="3.12092">
        <ele>989.67661713086</ele>
        <time>2020-02-20T11:47:00Z</time>
      </trkpt>
      <trkpt lat="44.47305" lon="3.12078">
        <ele>991.27383414275</ele>
        <time>2020-02-20T11:47:08Z</time>
      </trkpt>
      <trkpt lat="44.47308" lon="3.12066">
        <ele>992.8965511422</ele>
        <time>2020-02-20T11:47:16Z</time>
      </trkpt>
      <trkpt lat="44.47312" lon="3.12054">
        <ele>993.74453295875</ele>
        <time>2020-02-20T11:47:24Z</time>
      </trkpt>
      <trkpt lat="44.47316" lon="3.1204">
        <ele>995.48748765166</ele>
        <time>2020-02-20T11:47:34Z</time>
      </trkpt>
      <trkpt lat="44.47319" lon="3.12026">
        <ele>996.74773845299</ele>
        <time>2020-02-20T11:47:44Z</time>
      </trkpt>
      <trkpt lat="44.47321" lon="3.12011">
        <ele>997.82187796999</ele>
        <time>2020-02-20T11:47:55Z</time>
      </trkpt>
      <trkpt lat="44.4732" lon="3.11997">
        <ele>998.93564831521</ele>
        <time>2020-02-20T11:48:06Z</time>
      </trkpt>
      <trkpt lat="44.47318" lon="3.11984">
        <ele>1000.8967604858</ele>
        <time>2020-02-20T11:48:16Z</time>
      </trkpt>
      <trkpt lat="44.47315" lon="3.11971">
        <ele>1002.89799936</ele>
        <time>2020-02-20T11:48:26Z</time>
      </trkpt>
      <trkpt lat="44.47313" lon="3.11956">
        <ele>1004.89799936</ele>
        <time>2020-02-20T11:48:36Z</time>
      </trkpt>
      <trkpt lat="44.47312" lon="3.11941">
        <ele>1005.94899968</ele>
        <time>2020-02-20T11:48:46Z</time>
      </trkpt>
      <trkpt lat="44.47313" lon="3.11928">
        <ele>1006</ele>
        <time>2020-02-20T11:48:54Z</time>
      </trkpt>
      <trkpt lat="44.47313" lon="3.11915">
        <ele>1007.0925370245</ele>
        <time>2020-02-20T11:49:02Z</time>
      </trkpt>
      <trkpt lat="44.47314" lon="3.11903">
        <ele>1008</ele>
        <time>2020-02-20T11:49:10Z</time>
      </trkpt>
      <trkpt lat="44.47314" lon="3.1189">
        <ele>1008</ele>
        <time>2020-02-20T11:49:18Z</time>
      </trkpt>
      <trkpt lat="44.47315" lon="3.11876">
        <ele>1008</ele>
        <time>2020-02-20T11:49:26Z</time>
      </trkpt>
      <trkpt lat="44.47315" lon="3.11863">
        <ele>1008.7475051481</ele>
        <time>2020-02-20T11:49:34Z</time>
      </trkpt>
      <trkpt lat="44.47316" lon="3.1185">
        <ele>1009</ele>
        <time>2020-02-20T11:49:42Z</time>
      </trkpt>
      <trkpt lat="44.47316" lon="3.11836">
        <ele>1009.347609243</ele>
        <time>2020-02-20T11:49:50Z</time>
      </trkpt>
      <trkpt lat="44.47317" lon="3.11823">
        <ele>1010</ele>
        <time>2020-02-20T11:49:58Z</time>
      </trkpt>
      <trkpt lat="44.47317" lon="3.1181">
        <ele>1010</ele>
        <time>2020-02-20T11:50:06Z</time>
      </trkpt>
      <trkpt lat="44.47318" lon="3.11797">
        <ele>1011.49799936</ele>
        <time>2020-02-20T11:50:14Z</time>
      </trkpt>
      <trkpt lat="44.47318" lon="3.11784">
        <ele>1012</ele>
        <time>2020-02-20T11:50:22Z</time>
      </trkpt>
      <trkpt lat="44.47319" lon="3.11768">
        <ele>1012</ele>
        <time>2020-02-20T11:50:32Z</time>
      </trkpt>
      <trkpt lat="44.4732" lon="3.11754">
        <ele>1013.09799936</ele>
        <time>2020-02-20T11:50:42Z</time>
      </trkpt>
      <trkpt lat="44.47321" lon="3.11739">
        <ele>1014</ele>
        <time>2020-02-20T11:50:52Z</time>
      </trkpt>
      <trkpt lat="44.47324" lon="3.11724">
        <ele>1015</ele>
        <time>2020-02-20T11:52:57Z</time>
      </trkpt>
      <trkpt lat="44.47331" lon="3.11714">
        <ele>1015</ele>
        <time>2020-02-20T11:53:05Z</time>
      </trkpt>
      <trkpt lat="44.47338" lon="3.11705">
        <ele>1015</ele>
        <time>2020-02-20T11:53:13Z</time>
      </trkpt>
      <trkpt lat="44.47344" lon="3.11696">
        <ele>1015</ele>
        <time>2020-02-20T11:53:21Z</time>
      </trkpt>
      <trkpt lat="44.47351" lon="3.11686">
        <ele>1014.7534655072</ele>
        <time>2020-02-20T11:53:29Z</time>
      </trkpt>
      <trkpt lat="44.47358" lon="3.11676">
        <ele>1013.9212115257</ele>
        <time>2020-02-20T11:53:37Z</time>
      </trkpt>
      <trkpt lat="44.47365" lon="3.11667">
        <ele>1012.3050509543</ele>
        <time>2020-02-20T11:53:45Z</time>
      </trkpt>
      <trkpt lat="44.47372" lon="3.11655">
        <ele>1012</ele>
        <time>2020-02-20T11:53:55Z</time>
      </trkpt>
      <trkpt lat="44.4738" lon="3.11644">
        <ele>1012</ele>
        <time>2020-02-20T11:54:06Z</time>
      </trkpt>
      <trkpt lat="44.47385" lon="3.11632">
        <ele>1012</ele>
        <time>2020-02-20T11:54:14Z</time>
      </trkpt>
      <trkpt lat="44.47391" lon="3.11623">
        <ele>1012</ele>
        <time>2020-02-20T11:54:22Z</time>
      </trkpt>
      <trkpt lat="44.47397" lon="3.11612">
        <ele>1012.3410927935</ele>
        <time>2020-02-20T11:54:30Z</time>
      </trkpt>
      <trkpt lat="44.47404" lon="3.11602">
        <ele>1013.14899968</ele>
        <time>2020-02-20T11:54:38Z</time>
      </trkpt>
      <trkpt lat="44.4741" lon="3.11592">
        <ele>1013.94899968</ele>
        <time>2020-02-20T11:54:46Z</time>
      </trkpt>
      <trkpt lat="44.47416" lon="3.11582">
        <ele>1015.49799936</ele>
        <time>2020-02-20T11:54:54Z</time>
      </trkpt>
      <trkpt lat="44.47423" lon="3.11572">
        <ele>1016</ele>
        <time>2020-02-20T11:55:02Z</time>
      </trkpt>
      <trkpt lat="44.4743" lon="3.11561">
        <ele>1016.3450352161</ele>
        <time>2020-02-20T11:55:10Z</time>
      </trkpt>
      <trkpt lat="44.47436" lon="3.1155">
        <ele>1017.1472948154</ele>
        <time>2020-02-20T11:55:18Z</time>
      </trkpt>
      <trkpt lat="44.47443" lon="3.1154">
        <ele>1018</ele>
        <time>2020-02-20T11:55:28Z</time>
      </trkpt>
      <trkpt lat="44.47451" lon="3.11535">
        <ele>1018</ele>
        <time>2020-02-20T11:55:36Z</time>
      </trkpt>
      <trkpt lat="44.47462" lon="3.11531">
        <ele>1017.0585320635</ele>
        <time>2020-02-20T11:55:46Z</time>
      </trkpt>
      <trkpt lat="44.47471" lon="3.11526">
        <ele>1017</ele>
        <time>2020-02-20T11:55:54Z</time>
      </trkpt>
      <trkpt lat="44.47481" lon="3.11523">
        <ele>1016.45100032</ele>
        <time>2020-02-20T11:56:02Z</time>
      </trkpt>
      <trkpt lat="44.47491" lon="3.1152">
        <ele>1016.34899968</ele>
        <time>2020-02-20T11:56:10Z</time>
      </trkpt>
      <trkpt lat="44.475" lon="3.11517">
        <ele>1017</ele>
        <time>2020-02-20T11:56:18Z</time>
      </trkpt>
      <trkpt lat="44.4751" lon="3.11513">
        <ele>1017</ele>
        <time>2020-02-20T11:56:26Z</time>
      </trkpt>
      <trkpt lat="44.47519" lon="3.11509">
        <ele>1016.2706468523</ele>
        <time>2020-02-20T11:56:34Z</time>
      </trkpt>
      <trkpt lat="44.47528" lon="3.11505">
        <ele>1015.4612244898</ele>
        <time>2020-02-20T11:56:42Z</time>
      </trkpt>
      <trkpt lat="44.47538" lon="3.11501">
        <ele>1014.3156340029</ele>
        <time>2020-02-20T11:56:50Z</time>
      </trkpt>
      <trkpt lat="44.47546" lon="3.11495">
        <ele>1012.8692612412</ele>
        <time>2020-02-20T11:56:58Z</time>
      </trkpt>
      <trkpt lat="44.47556" lon="3.11492">
        <ele>1012.0708585575</ele>
        <time>2020-02-20T11:57:06Z</time>
      </trkpt>
      <trkpt lat="44.47565" lon="3.11487">
        <ele>1012</ele>
        <time>2020-02-20T11:57:14Z</time>
      </trkpt>
      <trkpt lat="44.47575" lon="3.11483">
        <ele>1011.482524261</ele>
        <time>2020-02-20T11:57:22Z</time>
      </trkpt>
      <trkpt lat="44.47584" lon="3.11477">
        <ele>1010.4765863814</ele>
        <time>2020-02-20T11:57:32Z</time>
      </trkpt>
      <trkpt lat="44.47594" lon="3.11472">
        <ele>1009.6569706011</ele>
        <time>2020-02-20T11:57:40Z</time>
      </trkpt>
      <trkpt lat="44.47603" lon="3.11468">
        <ele>1008.5705832405</ele>
        <time>2020-02-20T11:57:48Z</time>
      </trkpt>
      <trkpt lat="44.47611" lon="3.11463">
        <ele>1006.2013820972</ele>
        <time>2020-02-20T11:57:56Z</time>
      </trkpt>
      <trkpt lat="44.47621" lon="3.11459">
        <ele>1005.2628396416</ele>
        <time>2020-02-20T11:58:04Z</time>
      </trkpt>
      <trkpt lat="44.4763" lon="3.11455">
        <ele>1004.4668643428</ele>
        <time>2020-02-20T11:58:12Z</time>
      </trkpt>
      <trkpt lat="44.47639" lon="3.11451">
        <ele>1003.6696877083</ele>
        <time>2020-02-20T11:58:20Z</time>
      </trkpt>
      <trkpt lat="44.4765" lon="3.11448">
        <ele>1002.1317364428</ele>
        <time>2020-02-20T11:58:31Z</time>
      </trkpt>
      <trkpt lat="44.47655" lon="3.11439">
        <ele>1001</ele>
        <time>2020-02-20T12:00:10Z</time>
      </trkpt>
      <trkpt lat="44.47657" lon="3.11426">
        <ele>1000.7597598367</ele>
        <time>2020-02-20T12:00:19Z</time>
      </trkpt>
      <trkpt lat="44.4766" lon="3.11412">
        <ele>1000</ele>
        <time>2020-02-20T12:00:27Z</time>
      </trkpt>
      <trkpt lat="44.47663" lon="3.11398">
        <ele>1000</ele>
        <time>2020-02-20T12:00:35Z</time>
      </trkpt>
      <trkpt lat="44.47667" lon="3.11384">
        <ele>1000</ele>
        <time>2020-02-20T12:00:43Z</time>
      </trkpt>
      <trkpt lat="44.47671" lon="3.11372">
        <ele>999.55855845467</ele>
        <time>2020-02-20T12:00:51Z</time>
      </trkpt>
      <trkpt lat="44.47675" lon="3.1136">
        <ele>998.5135667092</ele>
        <time>2020-02-20T12:00:59Z</time>
      </trkpt>
      <trkpt lat="44.4768" lon="3.11348">
        <ele>997</ele>
        <time>2020-02-20T12:01:07Z</time>
      </trkpt>
      <trkpt lat="44.47686" lon="3.11338">
        <ele>997</ele>
        <time>2020-02-20T12:01:15Z</time>
      </trkpt>
      <trkpt lat="44.47692" lon="3.11327">
        <ele>997</ele>
        <time>2020-02-20T12:01:23Z</time>
      </trkpt>
      <trkpt lat="44.47697" lon="3.11315">
        <ele>997</ele>
        <time>2020-02-20T12:01:31Z</time>
      </trkpt>
      <trkpt lat="44.47703" lon="3.11304">
        <ele>997</ele>
        <time>2020-02-20T12:01:39Z</time>
      </trkpt>
      <trkpt lat="44.47709" lon="3.11292">
        <ele>997</ele>
        <time>2020-02-20T12:01:47Z</time>
      </trkpt>
      <trkpt lat="44.47714" lon="3.11281">
        <ele>997</ele>
        <time>2020-02-20T12:01:55Z</time>
      </trkpt>
      <trkpt lat="44.4772" lon="3.11269">
        <ele>996.35235223949</ele>
        <time>2020-02-20T12:02:03Z</time>
      </trkpt>
      <trkpt lat="44.47725" lon="3.11257">
        <ele>996</ele>
        <time>2020-02-20T12:02:11Z</time>
      </trkpt>
      <trkpt lat="44.47729" lon="3.11245">
        <ele>996</ele>
        <time>2020-02-20T12:02:19Z</time>
      </trkpt>
      <trkpt lat="44.47733" lon="3.11231">
        <ele>996</ele>
        <time>2020-02-20T12:02:27Z</time>
      </trkpt>
      <trkpt lat="44.47737" lon="3.11218">
        <ele>996</ele>
        <time>2020-02-20T12:02:35Z</time>
      </trkpt>
      <trkpt lat="44.47737" lon="3.112">
        <ele>996</ele>
        <time>2020-02-20T12:06:38Z</time>
      </trkpt>
      <trkpt lat="44.47727" lon="3.11194">
        <ele>995.762177738</ele>
        <time>2020-02-20T12:06:49Z</time>
      </trkpt>
      <trkpt lat="44.47717" lon="3.11188">
        <ele>995</ele>
        <time>2020-02-20T12:06:57Z</time>
      </trkpt>
      <trkpt lat="44.47707" lon="3.11186">
        <ele>995</ele>
        <time>2020-02-20T12:07:05Z</time>
      </trkpt>
      <trkpt lat="44.47697" lon="3.11186">
        <ele>995</ele>
        <time>2020-02-20T12:07:13Z</time>
      </trkpt>
      <trkpt lat="44.47687" lon="3.11187">
        <ele>993.68565921299</ele>
        <time>2020-02-20T12:07:21Z</time>
      </trkpt>
      <trkpt lat="44.47677" lon="3.11188">
        <ele>991.77492589139</ele>
        <time>2020-02-20T12:07:29Z</time>
      </trkpt>
      <trkpt lat="44.47668" lon="3.11188">
        <ele>990.98480211232</ele>
        <time>2020-02-20T12:07:37Z</time>
      </trkpt>
      <trkpt lat="44.47657" lon="3.1119">
        <ele>990.17426539436</ele>
        <time>2020-02-20T12:07:45Z</time>
      </trkpt>
      <trkpt lat="44.47647" lon="3.1119">
        <ele>989.35852932101</ele>
        <time>2020-02-20T12:07:53Z</time>
      </trkpt>
      <trkpt lat="44.47637" lon="3.11191">
        <ele>989</ele>
        <time>2020-02-20T12:08:01Z</time>
      </trkpt>
      <trkpt lat="44.47626" lon="3.11192">
        <ele>988.76123867054</ele>
        <time>2020-02-20T12:08:09Z</time>
      </trkpt>
      <trkpt lat="44.47616" lon="3.11191">
        <ele>988</ele>
        <time>2020-02-20T12:08:17Z</time>
      </trkpt>
      <trkpt lat="44.47605" lon="3.11192">
        <ele>988</ele>
        <time>2020-02-20T12:08:25Z</time>
      </trkpt>
      <trkpt lat="44.47595" lon="3.11192">
        <ele>988</ele>
        <time>2020-02-20T12:08:33Z</time>
      </trkpt>
      <trkpt lat="44.47584" lon="3.11192">
        <ele>987.57396422814</ele>
        <time>2020-02-20T12:08:41Z</time>
      </trkpt>
      <trkpt lat="44.47573" lon="3.11194">
        <ele>986.77663868853</ele>
        <time>2020-02-20T12:08:49Z</time>
      </trkpt>
      <trkpt lat="44.47563" lon="3.11195">
        <ele>986</ele>
        <time>2020-02-20T12:08:57Z</time>
      </trkpt>
      <trkpt lat="44.47552" lon="3.11199">
        <ele>986</ele>
        <time>2020-02-20T12:09:05Z</time>
      </trkpt>
      <trkpt lat="44.47542" lon="3.11202">
        <ele>985.35685548387</ele>
        <time>2020-02-20T12:09:13Z</time>
      </trkpt>
      <trkpt lat="44.47532" lon="3.11205">
        <ele>985</ele>
        <time>2020-02-20T12:09:21Z</time>
      </trkpt>
      <trkpt lat="44.47522" lon="3.11208">
        <ele>985</ele>
        <time>2020-02-20T12:09:29Z</time>
      </trkpt>
      <trkpt lat="44.47511" lon="3.11212">
        <ele>985</ele>
        <time>2020-02-20T12:09:37Z</time>
      </trkpt>
      <trkpt lat="44.47501" lon="3.11216">
        <ele>985</ele>
        <time>2020-02-20T12:09:45Z</time>
      </trkpt>
      <trkpt lat="44.4749" lon="3.11219">
        <ele>985</ele>
        <time>2020-02-20T12:09:53Z</time>
      </trkpt>
      <trkpt lat="44.4748" lon="3.11222">
        <ele>985</ele>
        <time>2020-02-20T12:10:01Z</time>
      </trkpt>
      <trkpt lat="44.47469" lon="3.11225">
        <ele>985</ele>
        <time>2020-02-20T12:10:09Z</time>
      </trkpt>
      <trkpt lat="44.47459" lon="3.11227">
        <ele>984.96161385827</ele>
        <time>2020-02-20T12:10:17Z</time>
      </trkpt>
      <trkpt lat="44.47449" lon="3.11229">
        <ele>984.17421228346</ele>
        <time>2020-02-20T12:10:25Z</time>
      </trkpt>
      <trkpt lat="44.4744" lon="3.11228">
        <ele>985</ele>
        <time>2020-02-20T12:11:31Z</time>
      </trkpt>
      <trkpt lat="44.47429" lon="3.11231">
        <ele>984.56603819153</ele>
        <time>2020-02-20T12:11:41Z</time>
      </trkpt>
      <trkpt lat="44.4742" lon="3.11234">
        <ele>984</ele>
        <time>2020-02-20T12:11:49Z</time>
      </trkpt>
      <trkpt lat="44.47411" lon="3.11238">
        <ele>984</ele>
        <time>2020-02-20T12:11:58Z</time>
      </trkpt>
      <trkpt lat="44.47401" lon="3.11243">
        <ele>984</ele>
        <time>2020-02-20T12:12:06Z</time>
      </trkpt>
      <trkpt lat="44.47392" lon="3.11248">
        <ele>984</ele>
        <time>2020-02-20T12:12:15Z</time>
      </trkpt>
      <trkpt lat="44.47383" lon="3.11253">
        <ele>984</ele>
        <time>2020-02-20T12:12:23Z</time>
      </trkpt>
      <trkpt lat="44.47373" lon="3.11258">
        <ele>984.43775477551</ele>
        <time>2020-02-20T12:12:31Z</time>
      </trkpt>
      <trkpt lat="44.47362" lon="3.11264">
        <ele>985</ele>
        <time>2020-02-20T12:12:39Z</time>
      </trkpt>
      <trkpt lat="44.47352" lon="3.11269">
        <ele>985</ele>
        <time>2020-02-20T12:12:47Z</time>
      </trkpt>
      <trkpt lat="44.47343" lon="3.11276">
        <ele>985</ele>
        <time>2020-02-20T12:12:55Z</time>
      </trkpt>
      <trkpt lat="44.47333" lon="3.1128">
        <ele>985</ele>
        <time>2020-02-20T12:13:04Z</time>
      </trkpt>
      <trkpt lat="44.47325" lon="3.11286">
        <ele>985</ele>
        <time>2020-02-20T12:13:12Z</time>
      </trkpt>
      <trkpt lat="44.47316" lon="3.11292">
        <ele>985</ele>
        <time>2020-02-20T12:13:20Z</time>
      </trkpt>
      <trkpt lat="44.47306" lon="3.11298">
        <ele>985</ele>
        <time>2020-02-20T12:13:28Z</time>
      </trkpt>
      <trkpt lat="44.47296" lon="3.11304">
        <ele>985</ele>
        <time>2020-02-20T12:13:36Z</time>
      </trkpt>
      <trkpt lat="44.47286" lon="3.11311">
        <ele>985</ele>
        <time>2020-02-20T12:13:44Z</time>
      </trkpt>
      <trkpt lat="44.47277" lon="3.11316">
        <ele>984.45436291414</ele>
        <time>2020-02-20T12:13:52Z</time>
      </trkpt>
      <trkpt lat="44.47267" lon="3.11319">
        <ele>983.30738503321</ele>
        <time>2020-02-20T12:14:00Z</time>
      </trkpt>
      <trkpt lat="44.47257" lon="3.1132">
        <ele>981.85657782623</ele>
        <time>2020-02-20T12:14:08Z</time>
      </trkpt>
      <trkpt lat="44.47247" lon="3.1132">
        <ele>981.06528132806</ele>
        <time>2020-02-20T12:14:16Z</time>
      </trkpt>
      <trkpt lat="44.47237" lon="3.11321">
        <ele>980.01429962466</ele>
        <time>2020-02-20T12:14:27Z</time>
      </trkpt>
      <trkpt lat="44.47227" lon="3.11322">
        <ele>979.16578114033</ele>
        <time>2020-02-20T12:14:35Z</time>
      </trkpt>
      <trkpt lat="44.47217" lon="3.11321">
        <ele>978.356</ele>
        <time>2020-02-20T12:14:43Z</time>
      </trkpt>
      <trkpt lat="44.47208" lon="3.11323">
        <ele>977.556</ele>
        <time>2020-02-20T12:14:51Z</time>
      </trkpt>
      <trkpt lat="44.47199" lon="3.11323">
        <ele>976.75672988818</ele>
        <time>2020-02-20T12:14:59Z</time>
      </trkpt>
      <trkpt lat="44.47189" lon="3.11324">
        <ele>976</ele>
        <time>2020-02-20T12:15:07Z</time>
      </trkpt>
      <trkpt lat="44.4718" lon="3.11325">
        <ele>976</ele>
        <time>2020-02-20T12:15:15Z</time>
      </trkpt>
      <trkpt lat="44.4717" lon="3.11325">
        <ele>975.35100032</ele>
        <time>2020-02-20T12:15:23Z</time>
      </trkpt>
      <trkpt lat="44.4716" lon="3.11325">
        <ele>974.5580711811</ele>
        <time>2020-02-20T12:15:31Z</time>
      </trkpt>
      <trkpt lat="44.47149" lon="3.11324">
        <ele>973.76512129032</ele>
        <time>2020-02-20T12:15:39Z</time>
      </trkpt>
      <trkpt lat="44.47138" lon="3.11323">
        <ele>973</ele>
        <time>2020-02-20T12:15:47Z</time>
      </trkpt>
      <trkpt lat="44.47127" lon="3.11323">
        <ele>973</ele>
        <time>2020-02-20T12:15:55Z</time>
      </trkpt>
      <trkpt lat="44.47117" lon="3.11322">
        <ele>972.37193346514</ele>
        <time>2020-02-20T12:16:03Z</time>
      </trkpt>
      <trkpt lat="44.47107" lon="3.11321">
        <ele>971.14256628436</ele>
        <time>2020-02-20T12:16:11Z</time>
      </trkpt>
      <trkpt lat="44.47097" lon="3.11322">
        <ele>969.53091217871</ele>
        <time>2020-02-20T12:16:19Z</time>
      </trkpt>
      <trkpt lat="44.47087" lon="3.11322">
        <ele>967.97961263351</ele>
        <time>2020-02-20T12:16:27Z</time>
      </trkpt>
      <trkpt lat="44.47076" lon="3.11322">
        <ele>967.16411797402</ele>
        <time>2020-02-20T12:16:35Z</time>
      </trkpt>
      <trkpt lat="44.47066" lon="3.11322">
        <ele>965.14063980116</ele>
        <time>2020-02-20T12:16:43Z</time>
      </trkpt>
      <trkpt lat="44.47055" lon="3.11322">
        <ele>963.57807666496</ele>
        <time>2020-02-20T12:16:51Z</time>
      </trkpt>
      <trkpt lat="44.47044" lon="3.11321">
        <ele>962.5160648996</ele>
        <time>2020-02-20T12:16:59Z</time>
      </trkpt>
      <trkpt lat="44.47034" lon="3.11321">
        <ele>960.95513487231</ele>
        <time>2020-02-20T12:17:07Z</time>
      </trkpt>
      <trkpt lat="44.47025" lon="3.11322">
        <ele>960.15752693043</ele>
        <time>2020-02-20T12:17:15Z</time>
      </trkpt>
      <trkpt lat="44.47015" lon="3.11323">
        <ele>959.35735692257</ele>
        <time>2020-02-20T12:17:23Z</time>
      </trkpt>
      <trkpt lat="44.47003" lon="3.11324">
        <ele>958.55655637828</ele>
        <time>2020-02-20T12:17:31Z</time>
      </trkpt>
      <trkpt lat="44.46993" lon="3.11324">
        <ele>958</ele>
        <time>2020-02-20T12:17:39Z</time>
      </trkpt>
      <trkpt lat="44.46982" lon="3.11324">
        <ele>957.95290552118</ele>
        <time>2020-02-20T12:17:47Z</time>
      </trkpt>
      <trkpt lat="44.46971" lon="3.11324">
        <ele>957.15130282882</ele>
        <time>2020-02-20T12:17:55Z</time>
      </trkpt>
      <trkpt lat="44.46961" lon="3.11324">
        <ele>956.35806184512</ele>
        <time>2020-02-20T12:18:03Z</time>
      </trkpt>
      <trkpt lat="44.46951" lon="3.11324">
        <ele>955.57142892927</ele>
        <time>2020-02-20T12:18:11Z</time>
      </trkpt>
      <trkpt lat="44.4694" lon="3.11324">
        <ele>954.77914124882</ele>
        <time>2020-02-20T12:18:19Z</time>
      </trkpt>
      <trkpt lat="44.4693" lon="3.11325">
        <ele>953.9623395718</ele>
        <time>2020-02-20T12:18:27Z</time>
      </trkpt>
      <trkpt lat="44.46922" lon="3.11325">
        <ele>952.06906881512</ele>
        <time>2020-02-20T12:20:16Z</time>
      </trkpt>
      <trkpt lat="44.46913" lon="3.11324">
        <ele>951.9561752988</ele>
        <time>2020-02-20T12:20:27Z</time>
      </trkpt>
      <trkpt lat="44.46903" lon="3.11323">
        <ele>951.1593625498</ele>
        <time>2020-02-20T12:20:35Z</time>
      </trkpt>
      <trkpt lat="44.46893" lon="3.11322">
        <ele>950.36633703519</ele>
        <time>2020-02-20T12:20:43Z</time>
      </trkpt>
      <trkpt lat="44.46883" lon="3.11321">
        <ele>949.15103752056</ele>
        <time>2020-02-20T12:20:51Z</time>
      </trkpt>
      <trkpt lat="44.46872" lon="3.1132">
        <ele>947.77720757435</ele>
        <time>2020-02-20T12:20:59Z</time>
      </trkpt>
      <trkpt lat="44.46861" lon="3.11319">
        <ele>946.95674014858</ele>
        <time>2020-02-20T12:21:07Z</time>
      </trkpt>
      <trkpt lat="44.46852" lon="3.11318">
        <ele>946.15191169293</ele>
        <time>2020-02-20T12:21:15Z</time>
      </trkpt>
      <trkpt lat="44.46842" lon="3.11315">
        <ele>945.36247535558</ele>
        <time>2020-02-20T12:21:23Z</time>
      </trkpt>
      <trkpt lat="44.46833" lon="3.11315">
        <ele>943.24439902605</ele>
        <time>2020-02-20T12:21:31Z</time>
      </trkpt>
      <trkpt lat="44.46821" lon="3.11315">
        <ele>940</ele>
        <time>2020-02-20T12:21:58Z</time>
      </trkpt>
      <trkpt lat="44.46811" lon="3.11316">
        <ele>940</ele>
        <time>2020-02-20T12:24:10Z</time>
      </trkpt>
      <trkpt lat="44.46802" lon="3.1132">
        <ele>939.85349092735</ele>
        <time>2020-02-20T12:24:18Z</time>
      </trkpt>
      <trkpt lat="44.46792" lon="3.11324">
        <ele>939.06686334454</ele>
        <time>2020-02-20T12:24:26Z</time>
      </trkpt>
      <trkpt lat="44.46781" lon="3.11327">
        <ele>937.5106820718</ele>
        <time>2020-02-20T12:24:34Z</time>
      </trkpt>
      <trkpt lat="44.46771" lon="3.1133">
        <ele>936.45373148776</ele>
        <time>2020-02-20T12:24:42Z</time>
      </trkpt>
      <trkpt lat="44.46761" lon="3.11332">
        <ele>935.312</ele>
        <time>2020-02-20T12:24:50Z</time>
      </trkpt>
      <trkpt lat="44.46753" lon="3.11336">
        <ele>933.85527642845</ele>
        <time>2020-02-20T12:24:58Z</time>
      </trkpt>
      <trkpt lat="44.46743" lon="3.11338">
        <ele>933.05125658653</ele>
        <time>2020-02-20T12:25:06Z</time>
      </trkpt>
      <trkpt lat="44.46733" lon="3.11338">
        <ele>932.25100032</ele>
        <time>2020-02-20T12:25:14Z</time>
      </trkpt>
      <trkpt lat="44.46722" lon="3.11343">
        <ele>931</ele>
        <time>2020-02-20T12:26:57Z</time>
      </trkpt>
      <trkpt lat="44.46715" lon="3.1134">
        <ele>931</ele>
        <time>2020-02-20T12:27:40Z</time>
      </trkpt>
      <trkpt lat="44.46705" lon="3.11341">
        <ele>930.6012083307</ele>
        <time>2020-02-20T12:27:48Z</time>
      </trkpt>
      <trkpt lat="44.46695" lon="3.11342">
        <ele>928.18428912283</ele>
        <time>2020-02-20T12:27:56Z</time>
      </trkpt>
      <trkpt lat="44.46686" lon="3.11343">
        <ele>927.25728634942</ele>
        <time>2020-02-20T12:28:04Z</time>
      </trkpt>
      <trkpt lat="44.46676" lon="3.11343">
        <ele>925.37450199203</ele>
        <time>2020-02-20T12:28:12Z</time>
      </trkpt>
      <trkpt lat="44.46667" lon="3.11344">
        <ele>923.32067910351</ele>
        <time>2020-02-20T12:28:20Z</time>
      </trkpt>
      <trkpt lat="44.46657" lon="3.11343">
        <ele>921.85959572713</ele>
        <time>2020-02-20T12:28:28Z</time>
      </trkpt>
      <trkpt lat="44.46647" lon="3.11343">
        <ele>921.05151544144</ele>
        <time>2020-02-20T12:28:36Z</time>
      </trkpt>
      <trkpt lat="44.46637" lon="3.11342">
        <ele>919.50200064</ele>
        <time>2020-02-20T12:28:44Z</time>
      </trkpt>
      <trkpt lat="44.46627" lon="3.11341">
        <ele>917.90200064</ele>
        <time>2020-02-20T12:28:52Z</time>
      </trkpt>
      <trkpt lat="44.46617" lon="3.1134">
        <ele>916.33460479225</ele>
        <time>2020-02-20T12:29:00Z</time>
      </trkpt>
      <trkpt lat="44.46608" lon="3.11339">
        <ele>914.7896951286</ele>
        <time>2020-02-20T12:29:08Z</time>
      </trkpt>
      <trkpt lat="44.46598" lon="3.11337">
        <ele>913.10725615739</ele>
        <time>2020-02-20T12:29:16Z</time>
      </trkpt>
      <trkpt lat="44.46588" lon="3.11336">
        <ele>912.26279559055</ele>
        <time>2020-02-20T12:29:24Z</time>
      </trkpt>
      <trkpt lat="44.46579" lon="3.11334">
        <ele>911.45833365854</ele>
        <time>2020-02-20T12:29:32Z</time>
      </trkpt>
      <trkpt lat="44.4657" lon="3.11332">
        <ele>910.3136680633</ele>
        <time>2020-02-20T12:29:40Z</time>
      </trkpt>
      <trkpt lat="44.4656" lon="3.11331">
        <ele>908.73626365195</ele>
        <time>2020-02-20T12:29:48Z</time>
      </trkpt>
      <trkpt lat="44.46551" lon="3.11329">
        <ele>907.13786154257</ele>
        <time>2020-02-20T12:29:56Z</time>
      </trkpt>
      <trkpt lat="44.46541" lon="3.11328">
        <ele>906.26973065041</ele>
        <time>2020-02-20T12:30:04Z</time>
      </trkpt>
      <trkpt lat="44.46531" lon="3.11327">
        <ele>905.45973544049</ele>
        <time>2020-02-20T12:30:12Z</time>
      </trkpt>
      <trkpt lat="44.46522" lon="3.11325">
        <ele>904.30959531249</ele>
        <time>2020-02-20T12:30:20Z</time>
      </trkpt>
      <trkpt lat="44.4651" lon="3.11324">
        <ele>902.66267507396</ele>
        <time>2020-02-20T12:30:30Z</time>
      </trkpt>
      <trkpt lat="44.465" lon="3.11321">
        <ele>901.72663325375</ele>
        <time>2020-02-20T12:30:38Z</time>
      </trkpt>
      <trkpt lat="44.46491" lon="3.11319">
        <ele>900.1185935699</ele>
        <time>2020-02-20T12:30:46Z</time>
      </trkpt>
      <trkpt lat="44.46482" lon="3.11316">
        <ele>898.51502974912</ele>
        <time>2020-02-20T12:30:54Z</time>
      </trkpt>
      <trkpt lat="44.46472" lon="3.11314">
        <ele>896.39349119149</ele>
        <time>2020-02-20T12:31:02Z</time>
      </trkpt>
      <trkpt lat="44.46462" lon="3.11311">
        <ele>895</ele>
        <time>2020-02-20T12:31:12Z</time>
      </trkpt>
      <trkpt lat="44.46452" lon="3.1131">
        <ele>893.90746297551</ele>
        <time>2020-02-20T12:31:22Z</time>
      </trkpt>
      <trkpt lat="44.46441" lon="3.11309">
        <ele>890.79881795735</ele>
        <time>2020-02-20T12:31:34Z</time>
      </trkpt>
      <trkpt lat="44.4643" lon="3.11308">
        <ele>888.51172355123</ele>
        <time>2020-02-20T12:31:44Z</time>
      </trkpt>
      <trkpt lat="44.46419" lon="3.11307">
        <ele>886.9224739792</ele>
        <time>2020-02-20T12:31:52Z</time>
      </trkpt>
      <trkpt lat="44.46408" lon="3.11305">
        <ele>885.33266033008</ele>
        <time>2020-02-20T12:32:00Z</time>
      </trkpt>
      <trkpt lat="44.46398" lon="3.11302">
        <ele>883.45136311284</ele>
        <time>2020-02-20T12:32:08Z</time>
      </trkpt>
      <trkpt lat="44.46388" lon="3.11301">
        <ele>880.33852264591</ele>
        <time>2020-02-20T12:32:16Z</time>
      </trkpt>
      <trkpt lat="44.46378" lon="3.11299">
        <ele>878.53442977494</ele>
        <time>2020-02-20T12:32:24Z</time>
      </trkpt>
      <trkpt lat="44.46369" lon="3.11298">
        <ele>877.46107818853</ele>
        <time>2020-02-20T12:32:32Z</time>
      </trkpt>
      <trkpt lat="44.4636" lon="3.11297">
        <ele>876.31992036695</ele>
        <time>2020-02-20T12:32:40Z</time>
      </trkpt>
      <trkpt lat="44.4635" lon="3.11296">
        <ele>874.85542168675</ele>
        <time>2020-02-20T12:32:48Z</time>
      </trkpt>
      <trkpt lat="44.46341" lon="3.11294">
        <ele>874.05220883534</ele>
        <time>2020-02-20T12:32:56Z</time>
      </trkpt>
      <trkpt lat="44.46331" lon="3.11292">
        <ele>871.05221767812</ele>
        <time>2020-02-20T12:33:04Z</time>
      </trkpt>
      <trkpt lat="44.4632" lon="3.1129">
        <ele>869.4616161368</ele>
        <time>2020-02-20T12:33:12Z</time>
      </trkpt>
      <trkpt lat="44.4631" lon="3.11288">
        <ele>868.65665644632</ele>
        <time>2020-02-20T12:33:20Z</time>
      </trkpt>
      <trkpt lat="44.463" lon="3.11286">
        <ele>867.71257466671</ele>
        <time>2020-02-20T12:33:28Z</time>
      </trkpt>
      <trkpt lat="44.4629" lon="3.11285">
        <ele>866.11576725957</ele>
        <time>2020-02-20T12:33:36Z</time>
      </trkpt>
      <trkpt lat="44.4628" lon="3.11285">
        <ele>864.51599872</ele>
        <time>2020-02-20T12:33:44Z</time>
      </trkpt>
      <trkpt lat="44.4627" lon="3.11285">
        <ele>862.91708267692</ele>
        <time>2020-02-20T12:33:52Z</time>
      </trkpt>
      <trkpt lat="44.4626" lon="3.11285">
        <ele>860.63463460385</ele>
        <time>2020-02-20T12:34:00Z</time>
      </trkpt>
      <trkpt lat="44.4625" lon="3.11285">
        <ele>857.86186725371</ele>
        <time>2020-02-20T12:34:08Z</time>
      </trkpt>
      <trkpt lat="44.4624" lon="3.11285">
        <ele>857.08365810595</ele>
        <time>2020-02-20T12:34:16Z</time>
      </trkpt>
      <trkpt lat="44.4623" lon="3.11284">
        <ele>855.52326769631</ele>
        <time>2020-02-20T12:34:24Z</time>
      </trkpt>
      <trkpt lat="44.46219" lon="3.11282">
        <ele>853.35571151537</ele>
        <time>2020-02-20T12:34:32Z</time>
      </trkpt>
      <trkpt lat="44.46208" lon="3.11281">
        <ele>851.31568690196</ele>
        <time>2020-02-20T12:34:40Z</time>
      </trkpt>
      <trkpt lat="44.46197" lon="3.11282">
        <ele>850</ele>
        <time>2020-02-20T12:34:48Z</time>
      </trkpt>
      <trkpt lat="44.46179" lon="3.11283">
        <ele>850</ele>
        <time>2020-02-20T12:40:18Z</time>
      </trkpt>
      <trkpt lat="44.46162" lon="3.11288">
        <ele>849.25586177561</ele>
        <time>2020-02-20T12:43:14Z</time>
      </trkpt>
      <trkpt lat="44.46154" lon="3.11296">
        <ele>848.4515485959</ele>
        <time>2020-02-20T12:43:22Z</time>
      </trkpt>
      <trkpt lat="44.46147" lon="3.11305">
        <ele>847.652</ele>
        <time>2020-02-20T12:43:30Z</time>
      </trkpt>
      <trkpt lat="44.46139" lon="3.11315">
        <ele>846.552</ele>
        <time>2020-02-20T12:43:41Z</time>
      </trkpt>
      <trkpt lat="44.46133" lon="3.11326">
        <ele>845</ele>
        <time>2020-02-20T12:45:36Z</time>
      </trkpt>
      <trkpt lat="44.46126" lon="3.11335">
        <ele>844.25896414343</ele>
        <time>2020-02-20T12:45:44Z</time>
      </trkpt>
      <trkpt lat="44.46119" lon="3.11344">
        <ele>842.91238635646</ele>
        <time>2020-02-20T12:45:52Z</time>
      </trkpt>
      <trkpt lat="44.46111" lon="3.11352">
        <ele>841.65472593981</ele>
        <time>2020-02-20T12:46:00Z</time>
      </trkpt>
      <trkpt lat="44.46102" lon="3.11361">
        <ele>839.62235524928</ele>
        <time>2020-02-20T12:46:10Z</time>
      </trkpt>
      <trkpt lat="44.46095" lon="3.1137">
        <ele>836.56047278206</ele>
        <time>2020-02-20T12:46:18Z</time>
      </trkpt>
      <trkpt lat="44.46087" lon="3.1138">
        <ele>834.20059003362</ele>
        <time>2020-02-20T12:46:26Z</time>
      </trkpt>
      <trkpt lat="44.46072" lon="3.11396">
        <ele>832</ele>
        <time>2020-02-20T12:46:52Z</time>
      </trkpt>
      <trkpt lat="44.46064" lon="3.11394">
        <ele>832</ele>
        <time>2020-02-20T12:47:06Z</time>
      </trkpt>
      <trkpt lat="44.46055" lon="3.11388">
        <ele>832.84142710531</ele>
        <time>2020-02-20T12:47:15Z</time>
      </trkpt>
      <trkpt lat="44.46046" lon="3.1138">
        <ele>833</ele>
        <time>2020-02-20T12:47:25Z</time>
      </trkpt>
      <trkpt lat="44.46038" lon="3.11372">
        <ele>833</ele>
        <time>2020-02-20T12:47:33Z</time>
      </trkpt>
      <trkpt lat="44.46029" lon="3.11363">
        <ele>832.56024104127</ele>
        <time>2020-02-20T12:47:41Z</time>
      </trkpt>
      <trkpt lat="44.46021" lon="3.11353">
        <ele>832</ele>
        <time>2020-02-20T12:47:49Z</time>
      </trkpt>
      <trkpt lat="44.46013" lon="3.11344">
        <ele>832</ele>
        <time>2020-02-20T12:47:57Z</time>
      </trkpt>
      <trkpt lat="44.46005" lon="3.11334">
        <ele>832</ele>
        <time>2020-02-20T12:48:05Z</time>
      </trkpt>
      <trkpt lat="44.45998" lon="3.11323">
        <ele>832</ele>
        <time>2020-02-20T12:48:13Z</time>
      </trkpt>
      <trkpt lat="44.45989" lon="3.11315">
        <ele>832</ele>
        <time>2020-02-20T12:48:21Z</time>
      </trkpt>
      <trkpt lat="44.45982" lon="3.11307">
        <ele>831.95521973613</ele>
        <time>2020-02-20T12:48:27Z</time>
      </trkpt>
      <trkpt lat="44.45973" lon="3.11299">
        <ele>831.15912049503</ele>
        <time>2020-02-20T12:48:35Z</time>
      </trkpt>
      <trkpt lat="44.45965" lon="3.11296">
        <ele>831</ele>
        <time>2020-02-20T12:48:46Z</time>
      </trkpt>
      <trkpt lat="44.45955" lon="3.11289">
        <ele>831</ele>
        <time>2020-02-20T12:48:54Z</time>
      </trkpt>
      <trkpt lat="44.45946" lon="3.11282">
        <ele>831</ele>
        <time>2020-02-20T12:49:02Z</time>
      </trkpt>
      <trkpt lat="44.45935" lon="3.11275">
        <ele>831.34104638001</ele>
        <time>2020-02-20T12:49:10Z</time>
      </trkpt>
      <trkpt lat="44.45926" lon="3.11273">
        <ele>832</ele>
        <time>2020-02-20T12:49:18Z</time>
      </trkpt>
      <trkpt lat="44.45915" lon="3.11266">
        <ele>832</ele>
        <time>2020-02-20T12:49:26Z</time>
      </trkpt>
      <trkpt lat="44.45905" lon="3.11262">
        <ele>832</ele>
        <time>2020-02-20T12:49:34Z</time>
      </trkpt>
      <trkpt lat="44.45894" lon="3.1126">
        <ele>832</ele>
        <time>2020-02-20T12:49:42Z</time>
      </trkpt>
      <trkpt lat="44.45884" lon="3.11261">
        <ele>832</ele>
        <time>2020-02-20T12:49:50Z</time>
      </trkpt>
      <trkpt lat="44.45874" lon="3.11261">
        <ele>832</ele>
        <time>2020-02-20T12:50:02Z</time>
      </trkpt>
      <trkpt lat="44.45865" lon="3.11265">
        <ele>831.30800128</ele>
        <time>2020-02-20T12:50:10Z</time>
      </trkpt>
      <trkpt lat="44.45854" lon="3.1127">
        <ele>829.85629984252</ele>
        <time>2020-02-20T12:50:18Z</time>
      </trkpt>
      <trkpt lat="44.45844" lon="3.11273">
        <ele>829.06889826772</ele>
        <time>2020-02-20T12:50:26Z</time>
      </trkpt>
      <trkpt lat="44.45836" lon="3.11277">
        <ele>826.78765618555</ele>
        <time>2020-02-20T12:50:34Z</time>
      </trkpt>
      <trkpt lat="44.45828" lon="3.11283">
        <ele>824.36817674141</ele>
        <time>2020-02-20T12:51:53Z</time>
      </trkpt>
      <trkpt lat="44.45821" lon="3.1129">
        <ele>823.56335006577</ele>
        <time>2020-02-20T12:52:01Z</time>
      </trkpt>
      <trkpt lat="44.45811" lon="3.11297">
        <ele>822.11341480055</ele>
        <time>2020-02-20T12:52:11Z</time>
      </trkpt>
      <trkpt lat="44.45802" lon="3.11304">
        <ele>820.11740890688</ele>
        <time>2020-02-20T12:52:21Z</time>
      </trkpt>
      <trkpt lat="44.45792" lon="3.11308">
        <ele>818.55240276589</ele>
        <time>2020-02-20T12:52:31Z</time>
      </trkpt>
      <trkpt lat="44.45783" lon="3.11311">
        <ele>817.2580318674</ele>
        <time>2020-02-20T12:52:39Z</time>
      </trkpt>
      <trkpt lat="44.45773" lon="3.11316">
        <ele>814.90475247072</ele>
        <time>2020-02-20T12:52:47Z</time>
      </trkpt>
      <trkpt lat="44.45765" lon="3.11322">
        <ele>813.3172936494</ele>
        <time>2020-02-20T12:52:55Z</time>
      </trkpt>
      <trkpt lat="44.45755" lon="3.11329">
        <ele>810.50983112496</ele>
        <time>2020-02-20T12:53:05Z</time>
      </trkpt>
      <trkpt lat="44.45747" lon="3.11337">
        <ele>807.50326786454</ele>
        <time>2020-02-20T12:53:15Z</time>
      </trkpt>
      <trkpt lat="44.45737" lon="3.11344">
        <ele>806.16781548352</ele>
        <time>2020-02-20T12:53:25Z</time>
      </trkpt>
      <trkpt lat="44.45728" lon="3.1135">
        <ele>803.43089430894</ele>
        <time>2020-02-20T12:53:33Z</time>
      </trkpt>
      <trkpt lat="44.4572" lon="3.11355">
        <ele>801.46796083446</ele>
        <time>2020-02-20T12:53:42Z</time>
      </trkpt>
      <trkpt lat="44.45711" lon="3.1136">
        <ele>799.65873573199</ele>
        <time>2020-02-20T12:54:00Z</time>
      </trkpt>
      <trkpt lat="44.45707" lon="3.1136">
        <ele>798.23991870968</ele>
        <time>2020-02-20T12:55:49Z</time>
      </trkpt>
      <trkpt lat="44.45698" lon="3.11366">
        <ele>796.36993047986</ele>
        <time>2020-02-20T12:56:33Z</time>
      </trkpt>
      <trkpt lat="44.45689" lon="3.11371">
        <ele>794.9265307082</ele>
        <time>2020-02-20T12:56:42Z</time>
      </trkpt>
      <trkpt lat="44.45679" lon="3.11376">
        <ele>793.65944944882</ele>
        <time>2020-02-20T12:56:50Z</time>
      </trkpt>
      <trkpt lat="44.45671" lon="3.11383">
        <ele>792.86895225806</ele>
        <time>2020-02-20T12:56:58Z</time>
      </trkpt>
      <trkpt lat="44.45664" lon="3.1139">
        <ele>791.88577339368</ele>
        <time>2020-02-20T12:57:07Z</time>
      </trkpt>
      <trkpt lat="44.45656" lon="3.11399">
        <ele>789.18036083711</ele>
        <time>2020-02-20T12:57:16Z</time>
      </trkpt>
      <trkpt lat="44.45649" lon="3.11406">
        <ele>787.50655951352</ele>
        <time>2020-02-20T12:57:24Z</time>
      </trkpt>
      <trkpt lat="44.4564" lon="3.11413">
        <ele>785.56924476263</ele>
        <time>2020-02-20T12:57:34Z</time>
      </trkpt>
      <trkpt lat="44.4563" lon="3.11423">
        <ele>783.52675774849</ele>
        <time>2020-02-20T12:57:44Z</time>
      </trkpt>
      <trkpt lat="44.45622" lon="3.1143">
        <ele>781.36930684788</ele>
        <time>2020-02-20T12:57:52Z</time>
      </trkpt>
      <trkpt lat="44.45614" lon="3.11437">
        <ele>779.31927646586</ele>
        <time>2020-02-20T12:58:00Z</time>
      </trkpt>
      <trkpt lat="44.45606" lon="3.11445">
        <ele>777.85869533597</ele>
        <time>2020-02-20T12:58:08Z</time>
      </trkpt>
      <trkpt lat="44.45597" lon="3.11451">
        <ele>777.06818150198</ele>
        <time>2020-02-20T12:58:16Z</time>
      </trkpt>
      <trkpt lat="44.45587" lon="3.11455">
        <ele>774.77586253899</ele>
        <time>2020-02-20T12:58:24Z</time>
      </trkpt>
      <trkpt lat="44.45577" lon="3.1146">
        <ele>774</ele>
        <time>2020-02-20T12:58:32Z</time>
      </trkpt>
      <trkpt lat="44.45567" lon="3.11467">
        <ele>772.65070029586</ele>
        <time>2020-02-20T12:58:40Z</time>
      </trkpt>
      <trkpt lat="44.45556" lon="3.11473">
        <ele>770</ele>
        <time>2020-02-20T12:58:48Z</time>
      </trkpt>
      <trkpt lat="44.45544" lon="3.1148">
        <ele>768.25918562941</ele>
        <time>2020-02-20T13:01:14Z</time>
      </trkpt>
      <trkpt lat="44.45538" lon="3.1149">
        <ele>766.91220959444</ele>
        <time>2020-02-20T13:01:22Z</time>
      </trkpt>
      <trkpt lat="44.45531" lon="3.11499">
        <ele>765.31697764334</ele>
        <time>2020-02-20T13:01:30Z</time>
      </trkpt>
      <trkpt lat="44.45523" lon="3.11509">
        <ele>763.34134219296</ele>
        <time>2020-02-20T13:01:40Z</time>
      </trkpt>
      <trkpt lat="44.45518" lon="3.11519">
        <ele>761.73577365854</ele>
        <time>2020-02-20T13:01:48Z</time>
      </trkpt>
      <trkpt lat="44.45517" lon="3.11531">
        <ele>760.10975739837</ele>
        <time>2020-02-20T13:01:56Z</time>
      </trkpt>
      <trkpt lat="44.45518" lon="3.11547">
        <ele>759.06336637679</ele>
        <time>2020-02-20T13:02:06Z</time>
      </trkpt>
      <trkpt lat="44.45517" lon="3.11562">
        <ele>757.5382328379</ele>
        <time>2020-02-20T13:02:14Z</time>
      </trkpt>
      <trkpt lat="44.45515" lon="3.11575">
        <ele>756.47047096041</ele>
        <time>2020-02-20T13:02:22Z</time>
      </trkpt>
      <trkpt lat="44.45514" lon="3.1159">
        <ele>755.0109906129</ele>
        <time>2020-02-20T13:02:30Z</time>
      </trkpt>
      <trkpt lat="44.45516" lon="3.11604">
        <ele>752.53455349594</ele>
        <time>2020-02-20T13:02:39Z</time>
      </trkpt>
      <trkpt lat="44.45521" lon="3.11616">
        <ele>750.95500032</ele>
        <time>2020-02-20T13:02:47Z</time>
      </trkpt>
      <trkpt lat="44.45526" lon="3.11628">
        <ele>750.15500032</ele>
        <time>2020-02-20T13:02:55Z</time>
      </trkpt>
      <trkpt lat="44.45531" lon="3.1164">
        <ele>747.75602506024</ele>
        <time>2020-02-20T13:03:04Z</time>
      </trkpt>
      <trkpt lat="44.45537" lon="3.11653">
        <ele>745.90200064</ele>
        <time>2020-02-20T13:03:12Z</time>
      </trkpt>
      <trkpt lat="44.4554" lon="3.11665">
        <ele>745</ele>
        <time>2020-02-20T13:03:20Z</time>
      </trkpt>
      <trkpt lat="44.45545" lon="3.11679">
        <ele>744.65792107918</ele>
        <time>2020-02-20T13:03:30Z</time>
      </trkpt>
      <trkpt lat="44.45549" lon="3.11692">
        <ele>743.50646750455</ele>
        <time>2020-02-20T13:03:39Z</time>
      </trkpt>
      <trkpt lat="44.4555" lon="3.11707">
        <ele>741.95881195402</ele>
        <time>2020-02-20T13:03:47Z</time>
      </trkpt>
      <trkpt lat="44.4555" lon="3.11721">
        <ele>741.19252842912</ele>
        <time>2020-02-20T13:03:55Z</time>
      </trkpt>
      <trkpt lat="44.4555" lon="3.11736">
        <ele>739.10842131643</ele>
        <time>2020-02-20T13:04:03Z</time>
      </trkpt>
      <trkpt lat="44.45552" lon="3.11748">
        <ele>737.46017713595</ele>
        <time>2020-02-20T13:04:12Z</time>
      </trkpt>
      <trkpt lat="44.45551" lon="3.11758">
        <ele>735</ele>
        <time>2020-02-20T13:04:36Z</time>
      </trkpt>
      <trkpt lat="44.4555" lon="3.11763">
        <ele>734</ele>
        <time>2020-02-20T13:06:16Z</time>
      </trkpt>
      <trkpt lat="44.45548" lon="3.11775">
        <ele>734</ele>
        <time>2020-02-20T13:06:26Z</time>
      </trkpt>
      <trkpt lat="44.45547" lon="3.11803">
        <ele>731</ele>
        <time>2020-02-20T13:13:38Z</time>
      </trkpt>
      <trkpt lat="44.4555" lon="3.11815">
        <ele>730.08722738535</ele>
        <time>2020-02-20T13:13:56Z</time>
      </trkpt>
      <trkpt lat="44.45552" lon="3.11829">
        <ele>727.96939750267</ele>
        <time>2020-02-20T13:14:11Z</time>
      </trkpt>
      <trkpt lat="44.45552" lon="3.11843">
        <ele>724.72617748483</ele>
        <time>2020-02-20T13:14:24Z</time>
      </trkpt>
      <trkpt lat="44.45551" lon="3.11859">
        <ele>723.56256307221</ele>
        <time>2020-02-20T13:14:42Z</time>
      </trkpt>
      <trkpt lat="44.45553" lon="3.1187">
        <ele>719.87987704633</ele>
        <time>2020-02-20T13:15:19Z</time>
      </trkpt>
      <trkpt lat="44.45555" lon="3.11883">
        <ele>717.13241043478</ele>
        <time>2020-02-20T13:15:42Z</time>
      </trkpt>
      <trkpt lat="44.45559" lon="3.11896">
        <ele>714.27686297057</ele>
        <time>2020-02-20T13:16:35Z</time>
      </trkpt>
      <trkpt lat="44.45564" lon="3.11905">
        <ele>712</ele>
        <time>2020-02-20T13:17:28Z</time>
      </trkpt>
      <trkpt lat="44.4557" lon="3.11917">
        <ele>709.45983940904</ele>
        <time>2020-02-20T13:17:43Z</time>
      </trkpt>
      <trkpt lat="44.45574" lon="3.11929">
        <ele>707.67594476402</ele>
        <time>2020-02-20T13:18:01Z</time>
      </trkpt>
      <trkpt lat="44.45576" lon="3.11944">
        <ele>705.9597647511</ele>
        <time>2020-02-20T13:18:18Z</time>
      </trkpt>
      <trkpt lat="44.45578" lon="3.11958">
        <ele>703.36153115377</ele>
        <time>2020-02-20T13:18:41Z</time>
      </trkpt>
      <trkpt lat="44.45579" lon="3.11971">
        <ele>701.15660156613</ele>
        <time>2020-02-20T13:18:56Z</time>
      </trkpt>
      <trkpt lat="44.45579" lon="3.11985">
        <ele>699</ele>
        <time>2020-02-20T13:19:10Z</time>
      </trkpt>
      <trkpt lat="44.45581" lon="3.11997">
        <ele>698.75496</ele>
        <time>2020-02-20T13:19:20Z</time>
      </trkpt>
      <trkpt lat="44.45582" lon="3.12009">
        <ele>697</ele>
        <time>2020-02-20T13:19:42Z</time>
      </trkpt>
      <trkpt lat="44.45588" lon="3.12017">
        <ele>696.47765654275</ele>
        <time>2020-02-20T13:20:03Z</time>
      </trkpt>
      <trkpt lat="44.45595" lon="3.12022">
        <ele>694.05459997722</ele>
        <time>2020-02-20T13:20:27Z</time>
      </trkpt>
      <trkpt lat="44.45601" lon="3.12031">
        <ele>694</ele>
        <time>2020-02-20T13:20:40Z</time>
      </trkpt>
      <trkpt lat="44.45602" lon="3.12047">
        <ele>692</ele>
        <time>2020-02-20T13:20:58Z</time>
      </trkpt>
      <trkpt lat="44.45598" lon="3.12053">
        <ele>691.1227710877</ele>
        <time>2020-02-20T13:23:17Z</time>
      </trkpt>
      <trkpt lat="44.45588" lon="3.12061">
        <ele>691.53400967602</ele>
        <time>2020-02-20T13:23:33Z</time>
      </trkpt>
      <trkpt lat="44.4558" lon="3.12067">
        <ele>692</ele>
        <time>2020-02-20T13:23:39Z</time>
      </trkpt>
      <trkpt lat="44.4557" lon="3.12072">
        <ele>692</ele>
        <time>2020-02-20T13:23:49Z</time>
      </trkpt>
      <trkpt lat="44.4556" lon="3.12074">
        <ele>692</ele>
        <time>2020-02-20T13:23:56Z</time>
      </trkpt>
      <trkpt lat="44.45551" lon="3.12075">
        <ele>692</ele>
        <time>2020-02-20T13:24:03Z</time>
      </trkpt>
      <trkpt lat="44.45541" lon="3.12075">
        <ele>692</ele>
        <time>2020-02-20T13:24:11Z</time>
      </trkpt>
      <trkpt lat="44.45528" lon="3.12073">
        <ele>691.86881877092</ele>
        <time>2020-02-20T13:24:19Z</time>
      </trkpt>
      <trkpt lat="44.45518" lon="3.12069">
        <ele>691.16246178407</ele>
        <time>2020-02-20T13:24:26Z</time>
      </trkpt>
      <trkpt lat="44.45508" lon="3.12065">
        <ele>691</ele>
        <time>2020-02-20T13:24:34Z</time>
      </trkpt>
      <trkpt lat="44.45499" lon="3.12063">
        <ele>690.46443056911</ele>
        <time>2020-02-20T13:24:53Z</time>
      </trkpt>
      <trkpt lat="44.45489" lon="3.12061">
        <ele>690.34507052229</ele>
        <time>2020-02-20T13:25:01Z</time>
      </trkpt>
      <trkpt lat="44.45478" lon="3.12057">
        <ele>691.47100032</ele>
        <time>2020-02-20T13:28:03Z</time>
      </trkpt>
      <trkpt lat="44.4547" lon="3.12054">
        <ele>691</ele>
        <time>2020-02-20T13:28:09Z</time>
      </trkpt>
      <trkpt lat="44.45458" lon="3.12053">
        <ele>691</ele>
        <time>2020-02-20T13:28:17Z</time>
      </trkpt>
      <trkpt lat="44.45447" lon="3.12055">
        <ele>689.56330957103</ele>
        <time>2020-02-20T13:28:42Z</time>
      </trkpt>
      <trkpt lat="44.45441" lon="3.12053">
        <ele>690</ele>
        <time>2020-02-20T13:31:29Z</time>
      </trkpt>
      <trkpt lat="44.4544" lon="3.12048">
        <ele>689</ele>
        <time>2020-02-20T13:32:09Z</time>
      </trkpt>
      <trkpt lat="44.45432" lon="3.12042">
        <ele>688.96647003801</ele>
        <time>2020-02-20T13:32:18Z</time>
      </trkpt>
      <trkpt lat="44.45424" lon="3.12034">
        <ele>688.17751490494</ele>
        <time>2020-02-20T13:32:26Z</time>
      </trkpt>
      <trkpt lat="44.45415" lon="3.12028">
        <ele>686.74873905187</ele>
        <time>2020-02-20T13:32:34Z</time>
      </trkpt>
      <trkpt lat="44.45404" lon="3.12026">
        <ele>685.37162849043</ele>
        <time>2020-02-20T13:32:44Z</time>
      </trkpt>
      <trkpt lat="44.45394" lon="3.12025">
        <ele>684.13008130081</ele>
        <time>2020-02-20T13:32:52Z</time>
      </trkpt>
      <trkpt lat="44.45384" lon="3.12024">
        <ele>682.75575583399</ele>
        <time>2020-02-20T13:33:00Z</time>
      </trkpt>
      <trkpt lat="44.45374" lon="3.12021">
        <ele>681.91089166631</ele>
        <time>2020-02-20T13:33:08Z</time>
      </trkpt>
      <trkpt lat="44.45363" lon="3.1202">
        <ele>679.12209852768</ele>
        <time>2020-02-20T13:33:22Z</time>
      </trkpt>
      <trkpt lat="44.45354" lon="3.12017">
        <ele>676.63084533519</ele>
        <time>2020-02-20T13:33:31Z</time>
      </trkpt>
      <trkpt lat="44.45344" lon="3.12012">
        <ele>673.65895361999</ele>
        <time>2020-02-20T13:33:41Z</time>
      </trkpt>
      <trkpt lat="44.45334" lon="3.12004">
        <ele>672.72770004964</ele>
        <time>2020-02-20T13:33:49Z</time>
      </trkpt>
      <trkpt lat="44.45327" lon="3.11994">
        <ele>671.6009391477</ele>
        <time>2020-02-20T13:33:55Z</time>
      </trkpt>
      <trkpt lat="44.45319" lon="3.11983">
        <ele>670.27038626609</ele>
        <time>2020-02-20T13:34:05Z</time>
      </trkpt>
      <trkpt lat="44.45313" lon="3.11971">
        <ele>668.09224790037</ele>
        <time>2020-02-20T13:34:14Z</time>
      </trkpt>
      <trkpt lat="44.45304" lon="3.11964">
        <ele>665.32186299595</ele>
        <time>2020-02-20T13:34:26Z</time>
      </trkpt>
      <trkpt lat="44.45295" lon="3.11964">
        <ele>662.17134183332</ele>
        <time>2020-02-20T13:34:37Z</time>
      </trkpt>
      <trkpt lat="44.45285" lon="3.11964">
        <ele>661.26798021108</ele>
        <time>2020-02-20T13:34:45Z</time>
      </trkpt>
      <trkpt lat="44.45276" lon="3.11963">
        <ele>659.52929197853</ele>
        <time>2020-02-20T13:34:55Z</time>
      </trkpt>
      <trkpt lat="44.45267" lon="3.11964">
        <ele>657.62198638287</ele>
        <time>2020-02-20T13:35:34Z</time>
      </trkpt>
      <trkpt lat="44.45261" lon="3.11954">
        <ele>656.3577981412</ele>
        <time>2020-02-20T13:37:14Z</time>
      </trkpt>
      <trkpt lat="44.45252" lon="3.11947">
        <ele>655</ele>
        <time>2020-02-20T13:37:30Z</time>
      </trkpt>
      <trkpt lat="44.45242" lon="3.11946">
        <ele>654.06896495193</ele>
        <time>2020-02-20T13:37:47Z</time>
      </trkpt>
      <trkpt lat="44.45235" lon="3.11939">
        <ele>653.07092932259</ele>
        <time>2020-02-20T13:37:57Z</time>
      </trkpt>
      <trkpt lat="44.45225" lon="3.11932">
        <ele>652</ele>
        <time>2020-02-20T13:38:26Z</time>
      </trkpt>
      <trkpt lat="44.45216" lon="3.11928">
        <ele>651.06138554385</ele>
        <time>2020-02-20T13:38:37Z</time>
      </trkpt>
      <trkpt lat="44.45206" lon="3.11924">
        <ele>649.58755988128</ele>
        <time>2020-02-20T13:38:45Z</time>
      </trkpt>
      <trkpt lat="44.45201" lon="3.11911">
        <ele>645.11984227574</ele>
        <time>2020-02-20T13:39:32Z</time>
      </trkpt>
      <trkpt lat="44.45198" lon="3.11899">
        <ele>643.7676762714</ele>
        <time>2020-02-20T13:39:40Z</time>
      </trkpt>
      <trkpt lat="44.4519" lon="3.11891">
        <ele>642.75855115239</ele>
        <time>2020-02-20T13:39:50Z</time>
      </trkpt>
      <trkpt lat="44.45185" lon="3.1188">
        <ele>641.71344338734</ele>
        <time>2020-02-20T13:39:59Z</time>
      </trkpt>
      <trkpt lat="44.45181" lon="3.11866">
        <ele>639.61082652149</ele>
        <time>2020-02-20T13:40:09Z</time>
      </trkpt>
      <trkpt lat="44.45175" lon="3.11854">
        <ele>636.11984227574</ele>
        <time>2020-02-20T13:40:22Z</time>
      </trkpt>
      <trkpt lat="44.45165" lon="3.11846">
        <ele>634.56565619998</ele>
        <time>2020-02-20T13:40:32Z</time>
      </trkpt>
      <trkpt lat="44.45159" lon="3.11838">
        <ele>634</ele>
        <time>2020-02-20T13:40:40Z</time>
      </trkpt>
      <trkpt lat="44.45153" lon="3.11829">
        <ele>632.73420284348</ele>
        <time>2020-02-20T13:41:35Z</time>
      </trkpt>
      <trkpt lat="44.45147" lon="3.11819">
        <ele>633</ele>
        <time>2020-02-20T13:41:46Z</time>
      </trkpt>
      <trkpt lat="44.4514" lon="3.11811">
        <ele>632.37810957313</ele>
        <time>2020-02-20T13:41:54Z</time>
      </trkpt>
      <trkpt lat="44.45131" lon="3.11804">
        <ele>631.56790123457</ele>
        <time>2020-02-20T13:42:02Z</time>
      </trkpt>
      <trkpt lat="44.45121" lon="3.11797">
        <ele>631</ele>
        <time>2020-02-20T13:42:10Z</time>
      </trkpt>
      <trkpt lat="44.45112" lon="3.11792">
        <ele>631</ele>
        <time>2020-02-20T13:42:18Z</time>
      </trkpt>
      <trkpt lat="44.45101" lon="3.11786">
        <ele>630.3761019788</ele>
        <time>2020-02-20T13:42:34Z</time>
      </trkpt>
      <trkpt lat="44.45092" lon="3.11781">
        <ele>628.73556271998</ele>
        <time>2020-02-20T13:42:42Z</time>
      </trkpt>
      <trkpt lat="44.45084" lon="3.11775">
        <ele>626.5350258794</ele>
        <time>2020-02-20T13:42:50Z</time>
      </trkpt>
      <trkpt lat="44.45073" lon="3.11769">
        <ele>624.95595597006</ele>
        <time>2020-02-20T13:42:58Z</time>
      </trkpt>
      <trkpt lat="44.45065" lon="3.11762">
        <ele>624.15515542578</ele>
        <time>2020-02-20T13:43:06Z</time>
      </trkpt>
      <trkpt lat="44.45056" lon="3.11753">
        <ele>622.07844996555</ele>
        <time>2020-02-20T13:43:14Z</time>
      </trkpt>
      <trkpt lat="44.45047" lon="3.11749">
        <ele>620.14785973807</ele>
        <time>2020-02-20T13:43:22Z</time>
      </trkpt>
      <trkpt lat="44.45039" lon="3.11741">
        <ele>618.57230245038</ele>
        <time>2020-02-20T13:43:30Z</time>
      </trkpt>
      <trkpt lat="44.45032" lon="3.11731">
        <ele>616.972</ele>
        <time>2020-02-20T13:43:38Z</time>
      </trkpt>
      <trkpt lat="44.45024" lon="3.11724">
        <ele>616.172</ele>
        <time>2020-02-20T13:43:46Z</time>
      </trkpt>
      <trkpt lat="44.45014" lon="3.11716">
        <ele>612.64777327935</ele>
        <time>2020-02-20T13:43:56Z</time>
      </trkpt>
      <trkpt lat="44.45005" lon="3.11709">
        <ele>610.0895516305</ele>
        <time>2020-02-20T13:44:04Z</time>
      </trkpt>
      <trkpt lat="44.44994" lon="3.11697">
        <ele>606.86290322581</ele>
        <time>2020-02-20T13:47:19Z</time>
      </trkpt>
      <trkpt lat="44.44986" lon="3.11688">
        <ele>605.27236534226</ele>
        <time>2020-02-20T13:47:30Z</time>
      </trkpt>
      <trkpt lat="44.44978" lon="3.11692">
        <ele>602.55935577667</ele>
        <time>2020-02-20T13:47:42Z</time>
      </trkpt>
      <trkpt lat="44.4497" lon="3.117">
        <ele>601.52667327979</ele>
        <time>2020-02-20T13:47:50Z</time>
      </trkpt>
      <trkpt lat="44.44963" lon="3.11708">
        <ele>599.48338384157</ele>
        <time>2020-02-20T13:48:03Z</time>
      </trkpt>
      <trkpt lat="44.44954" lon="3.11715">
        <ele>598</ele>
        <time>2020-02-20T13:49:17Z</time>
      </trkpt>
      <trkpt lat="44.44944" lon="3.11718">
        <ele>594.8185380238</ele>
        <time>2020-02-20T13:49:28Z</time>
      </trkpt>
      <trkpt lat="44.44935" lon="3.11719">
        <ele>590.93541878977</ele>
        <time>2020-02-20T13:49:38Z</time>
      </trkpt>
      <trkpt lat="44.44925" lon="3.11722">
        <ele>589.52270481608</ele>
        <time>2020-02-20T13:49:45Z</time>
      </trkpt>
      <trkpt lat="44.44909" lon="3.11741">
        <ele>587.43651047619</ele>
        <time>2020-02-20T13:52:39Z</time>
      </trkpt>
      <trkpt lat="44.44899" lon="3.11749">
        <ele>584.26190730159</ele>
        <time>2020-02-20T13:52:47Z</time>
      </trkpt>
      <trkpt lat="44.44892" lon="3.1176">
        <ele>580.21862117392</ele>
        <time>2020-02-20T13:52:57Z</time>
      </trkpt>
      <trkpt lat="44.44886" lon="3.11769">
        <ele>579.17302016093</ele>
        <time>2020-02-20T13:53:06Z</time>
      </trkpt>
      <trkpt lat="44.4488" lon="3.11779">
        <ele>576.44933255249</ele>
        <time>2020-02-20T13:53:14Z</time>
      </trkpt>
      <trkpt lat="44.44872" lon="3.11786">
        <ele>574</ele>
        <time>2020-02-20T13:53:31Z</time>
      </trkpt>
      <trkpt lat="44.4487" lon="3.11804">
        <ele>572.69157907643</ele>
        <time>2020-02-20T13:56:21Z</time>
      </trkpt>
      <trkpt lat="44.44869" lon="3.11817">
        <ele>571.8567131981</ele>
        <time>2020-02-20T13:56:29Z</time>
      </trkpt>
      <trkpt lat="44.44868" lon="3.11832">
        <ele>571.05511050574</ele>
        <time>2020-02-20T13:56:37Z</time>
      </trkpt>
      <trkpt lat="44.44867" lon="3.11846">
        <ele>569.52182603175</ele>
        <time>2020-02-20T13:56:45Z</time>
      </trkpt>
      <trkpt lat="44.44864" lon="3.11858">
        <ele>567.93663362321</ele>
        <time>2020-02-20T13:56:53Z</time>
      </trkpt>
      <trkpt lat="44.44857" lon="3.11871">
        <ele>566.67751468086</ele>
        <time>2020-02-20T13:57:01Z</time>
      </trkpt>
      <trkpt lat="44.44849" lon="3.11873">
        <ele>564.86147651736</ele>
        <time>2020-02-20T13:57:19Z</time>
      </trkpt>
      <trkpt lat="44.4484" lon="3.1187">
        <ele>564.05257837899</ele>
        <time>2020-02-20T13:57:27Z</time>
      </trkpt>
      <trkpt lat="44.44831" lon="3.11864">
        <ele>562.19182046603</ele>
        <time>2020-02-20T13:58:26Z</time>
      </trkpt>
      <trkpt lat="44.44824" lon="3.11855">
        <ele>562</ele>
        <time>2020-02-20T13:58:36Z</time>
      </trkpt>
      <trkpt lat="44.44815" lon="3.11845">
        <ele>561.95604394199</ele>
        <time>2020-02-20T13:59:18Z</time>
      </trkpt>
      <trkpt lat="44.44808" lon="3.11836">
        <ele>561.1568428873</ele>
        <time>2020-02-20T13:59:26Z</time>
      </trkpt>
      <trkpt lat="44.44802" lon="3.11826">
        <ele>560.37084156816</ele>
        <time>2020-02-20T13:59:34Z</time>
      </trkpt>
      <trkpt lat="44.44796" lon="3.11813">
        <ele>559.3708211969</ele>
        <time>2020-02-20T13:59:44Z</time>
      </trkpt>
      <trkpt lat="44.4479" lon="3.11803">
        <ele>556.9779110324</ele>
        <time>2020-02-20T14:01:28Z</time>
      </trkpt>
      <trkpt lat="44.44785" lon="3.11789">
        <ele>555.97402660508</ele>
        <time>2020-02-20T14:01:38Z</time>
      </trkpt>
      <trkpt lat="44.4478" lon="3.11778">
        <ele>554.97438557377</ele>
        <time>2020-02-20T14:01:48Z</time>
      </trkpt>
      <trkpt lat="44.44775" lon="3.11765">
        <ele>554.15471344262</ele>
        <time>2020-02-20T14:01:56Z</time>
      </trkpt>
      <trkpt lat="44.44771" lon="3.11751">
        <ele>553.35678901306</ele>
        <time>2020-02-20T14:02:04Z</time>
      </trkpt>
      <trkpt lat="44.44767" lon="3.11738">
        <ele>552.12</ele>
        <time>2020-02-20T14:02:12Z</time>
      </trkpt>
      <trkpt lat="44.44765" lon="3.11725">
        <ele>550.75903614458</ele>
        <time>2020-02-20T14:02:20Z</time>
      </trkpt>
      <trkpt lat="44.44764" lon="3.11712">
        <ele>549.91364085146</ele>
        <time>2020-02-20T14:02:28Z</time>
      </trkpt>
      <trkpt lat="44.44762" lon="3.11698">
        <ele>547</ele>
        <time>2020-02-20T14:03:28Z</time>
      </trkpt>
      <trkpt lat="44.44768" lon="3.11684">
        <ele>546.91897296443</ele>
        <time>2020-02-20T14:03:38Z</time>
      </trkpt>
      <trkpt lat="44.44775" lon="3.11674">
        <ele>545.33794529644</ele>
        <time>2020-02-20T14:03:46Z</time>
      </trkpt>
      <trkpt lat="44.44784" lon="3.11671">
        <ele>544.26139873997</ele>
        <time>2020-02-20T14:03:55Z</time>
      </trkpt>
      <trkpt lat="44.44792" lon="3.11664">
        <ele>543.27961182422</ele>
        <time>2020-02-20T14:04:05Z</time>
      </trkpt>
      <trkpt lat="44.44796" lon="3.11652">
        <ele>541</ele>
        <time>2020-02-20T14:04:19Z</time>
      </trkpt>
      <trkpt lat="44.44791" lon="3.11652">
        <ele>540.05970151155</ele>
        <time>2020-02-20T14:05:07Z</time>
      </trkpt>
      <trkpt lat="44.44781" lon="3.11655">
        <ele>539.992708</ele>
        <time>2020-02-20T14:05:18Z</time>
      </trkpt>
      <trkpt lat="44.4477" lon="3.11656">
        <ele>539.055208</ele>
        <time>2020-02-20T14:05:27Z</time>
      </trkpt>
      <trkpt lat="44.44759" lon="3.11656">
        <ele>537.52517352007</ele>
        <time>2020-02-20T14:05:35Z</time>
      </trkpt>
      <trkpt lat="44.44748" lon="3.1166">
        <ele>536.05465529348</ele>
        <time>2020-02-20T14:05:47Z</time>
      </trkpt>
      <trkpt lat="44.44741" lon="3.1167">
        <ele>534.51394484278</ele>
        <time>2020-02-20T14:05:55Z</time>
      </trkpt>
      <trkpt lat="44.44733" lon="3.11676">
        <ele>532.92566990705</ele>
        <time>2020-02-20T14:06:03Z</time>
      </trkpt>
      <trkpt lat="44.44725" lon="3.11668">
        <ele>531.52834072874</ele>
        <time>2020-02-20T14:06:10Z</time>
      </trkpt>
      <trkpt lat="44.4472" lon="3.11657">
        <ele>530</ele>
        <time>2020-02-20T14:06:24Z</time>
      </trkpt>
      <trkpt lat="44.44715" lon="3.11643">
        <ele>529.11711804056</ele>
        <time>2020-02-20T14:06:32Z</time>
      </trkpt>
      <trkpt lat="44.44709" lon="3.1163">
        <ele>527.76708413513</ele>
        <time>2020-02-20T14:06:40Z</time>
      </trkpt>
      <trkpt lat="44.44708" lon="3.11629">
        <ele>526.26315782784</ele>
        <time>2020-02-20T14:08:15Z</time>
      </trkpt>
      <trkpt lat="44.44707" lon="3.11616">
        <ele>526</ele>
        <time>2020-02-20T14:09:03Z</time>
      </trkpt>
      <trkpt lat="44.44702" lon="3.11603">
        <ele>526</ele>
        <time>2020-02-20T14:09:11Z</time>
      </trkpt>
      <trkpt lat="44.44698" lon="3.11588">
        <ele>525.86363612856</ele>
        <time>2020-02-20T14:09:19Z</time>
      </trkpt>
      <trkpt lat="44.44699" lon="3.11573">
        <ele>525.05555584287</ele>
        <time>2020-02-20T14:09:27Z</time>
      </trkpt>
      <trkpt lat="44.447" lon="3.11559">
        <ele>525</ele>
        <time>2020-02-20T14:09:35Z</time>
      </trkpt>
      <trkpt lat="44.447" lon="3.11544">
        <ele>524.45932571429</ele>
        <time>2020-02-20T14:09:43Z</time>
      </trkpt>
      <trkpt lat="44.447" lon="3.11528">
        <ele>524</ele>
        <time>2020-02-20T14:09:51Z</time>
      </trkpt>
      <trkpt lat="44.44701" lon="3.11513">
        <ele>524</ele>
        <time>2020-02-20T14:09:59Z</time>
      </trkpt>
      <trkpt lat="44.44702" lon="3.11499">
        <ele>524</ele>
        <time>2020-02-20T14:10:07Z</time>
      </trkpt>
      <trkpt lat="44.44702" lon="3.11483">
        <ele>524</ele>
        <time>2020-02-20T14:10:15Z</time>
      </trkpt>
      <trkpt lat="44.44706" lon="3.1147">
        <ele>524</ele>
        <time>2020-02-20T14:10:23Z</time>
      </trkpt>
      <trkpt lat="44.44709" lon="3.11456">
        <ele>523.67853520129</ele>
        <time>2020-02-20T14:10:31Z</time>
      </trkpt>
      <trkpt lat="44.44709" lon="3.11453">
        <ele>523.46918518914</ele>
        <time>2020-02-20T14:11:33Z</time>
      </trkpt>
      <trkpt lat="44.4471" lon="3.11444">
        <ele>524</ele>
        <time>2020-02-20T14:11:57Z</time>
      </trkpt>
      <trkpt lat="44.44716" lon="3.11434">
        <ele>523.25474533011</ele>
        <time>2020-02-20T14:12:05Z</time>
      </trkpt>
      <trkpt lat="44.44723" lon="3.11423">
        <ele>523.54718843373</ele>
        <time>2020-02-20T14:12:13Z</time>
      </trkpt>
      <trkpt lat="44.4473" lon="3.11413">
        <ele>524</ele>
        <time>2020-02-20T14:12:21Z</time>
      </trkpt>
      <trkpt lat="44.44737" lon="3.11404">
        <ele>523.87080844446</ele>
        <time>2020-02-20T14:12:29Z</time>
      </trkpt>
      <trkpt lat="44.44744" lon="3.11396">
        <ele>523.08185430731</ele>
        <time>2020-02-20T14:12:37Z</time>
      </trkpt>
      <trkpt lat="44.44752" lon="3.11388">
        <ele>522.26761962913</ele>
        <time>2020-02-20T14:12:45Z</time>
      </trkpt>
      <trkpt lat="44.44761" lon="3.1138">
        <ele>521.46146099333</ele>
        <time>2020-02-20T14:12:53Z</time>
      </trkpt>
      <trkpt lat="44.44769" lon="3.11373">
        <ele>521</ele>
        <time>2020-02-20T14:13:01Z</time>
      </trkpt>
      <trkpt lat="44.44777" lon="3.11368">
        <ele>520.8652484201</ele>
        <time>2020-02-20T14:13:09Z</time>
      </trkpt>
      <trkpt lat="44.44787" lon="3.11363">
        <ele>520.05471065099</ele>
        <time>2020-02-20T14:13:17Z</time>
      </trkpt>
      <trkpt lat="44.44795" lon="3.11357">
        <ele>520</ele>
        <time>2020-02-20T14:13:25Z</time>
      </trkpt>
      <trkpt lat="44.44806" lon="3.11352">
        <ele>519.38878296578</ele>
        <time>2020-02-20T14:13:34Z</time>
      </trkpt>
      <trkpt lat="44.44815" lon="3.11343">
        <ele>519</ele>
        <time>2020-02-20T14:13:42Z</time>
      </trkpt>
      <trkpt lat="44.4482" lon="3.11331">
        <ele>519</ele>
        <time>2020-02-20T14:13:50Z</time>
      </trkpt>
      <trkpt lat="44.44819" lon="3.11315">
        <ele>519</ele>
        <time>2020-02-20T14:13:58Z</time>
      </trkpt>
      <trkpt lat="44.44815" lon="3.11275">
        <ele>519</ele>
        <time>2020-02-20T14:14:21Z</time>
      </trkpt>
      <trkpt lat="44.44818" lon="3.11262">
        <ele>519</ele>
        <time>2020-02-20T14:14:29Z</time>
      </trkpt>
      <trkpt lat="44.44817" lon="3.11249">
        <ele>519</ele>
        <time>2020-02-20T14:14:37Z</time>
      </trkpt>
      <trkpt lat="44.44805" lon="3.11248">
        <ele>521</ele>
        <time>2020-02-20T14:18:21Z</time>
      </trkpt>
      <trkpt lat="44.44796" lon="3.11247">
        <ele>523</ele>
        <time>2020-02-20T14:18:47Z</time>
      </trkpt>
      <trkpt lat="44.44786" lon="3.11247">
        <ele>524.91856940026</ele>
        <time>2020-02-20T14:19:17Z</time>
      </trkpt>
      <trkpt lat="44.44777" lon="3.1124">
        <ele>526.14397667168</ele>
        <time>2020-02-20T14:19:29Z</time>
      </trkpt>
      <trkpt lat="44.44768" lon="3.11236">
        <ele>527.73780422764</ele>
        <time>2020-02-20T14:19:45Z</time>
      </trkpt>
      <trkpt lat="44.4476" lon="3.11229">
        <ele>528.52065276331</ele>
        <time>2020-02-20T14:19:53Z</time>
      </trkpt>
      <trkpt lat="44.44751" lon="3.11221">
        <ele>530.05252033613</ele>
        <time>2020-02-20T14:20:03Z</time>
      </trkpt>
      <trkpt lat="44.44744" lon="3.11209">
        <ele>533.24699904</ele>
        <time>2020-02-20T14:20:15Z</time>
      </trkpt>
      <trkpt lat="44.44736" lon="3.11199">
        <ele>534.94899968</ele>
        <time>2020-02-20T14:20:27Z</time>
      </trkpt>
      <trkpt lat="44.44727" lon="3.11192">
        <ele>537.14386340838</ele>
        <time>2020-02-20T14:20:39Z</time>
      </trkpt>
      <trkpt lat="44.44717" lon="3.11186">
        <ele>538.24726871984</ele>
        <time>2020-02-20T14:20:50Z</time>
      </trkpt>
      <trkpt lat="44.44707" lon="3.1118">
        <ele>540</ele>
        <time>2020-02-20T14:21:11Z</time>
      </trkpt>
      <trkpt lat="44.44699" lon="3.1117">
        <ele>542.69799936</ele>
        <time>2020-02-20T14:28:31Z</time>
      </trkpt>
      <trkpt lat="44.44699" lon="3.11158">
        <ele>545.92201347981</ele>
        <time>2020-02-20T14:28:44Z</time>
      </trkpt>
      <trkpt lat="44.44705" lon="3.11144">
        <ele>555</ele>
        <time>2020-02-20T14:29:33Z</time>
      </trkpt>
      <trkpt lat="44.44708" lon="3.1114">
        <ele>554</ele>
        <time>2020-02-20T14:32:46Z</time>
      </trkpt>
      <trkpt lat="44.44698" lon="3.11134">
        <ele>554.8300591466</ele>
        <time>2020-02-20T14:32:56Z</time>
      </trkpt>
      <trkpt lat="44.44687" lon="3.11131">
        <ele>555.6346157085</ele>
        <time>2020-02-20T14:33:04Z</time>
      </trkpt>
      <trkpt lat="44.44677" lon="3.11129">
        <ele>556.43812379202</ele>
        <time>2020-02-20T14:33:12Z</time>
      </trkpt>
      <trkpt lat="44.44668" lon="3.11131">
        <ele>557</ele>
        <time>2020-02-20T14:33:20Z</time>
      </trkpt>
      <trkpt lat="44.44657" lon="3.11128">
        <ele>557</ele>
        <time>2020-02-20T14:33:28Z</time>
      </trkpt>
      <trkpt lat="44.44648" lon="3.11121">
        <ele>557</ele>
        <time>2020-02-20T14:33:34Z</time>
      </trkpt>
      <trkpt lat="44.44639" lon="3.11104">
        <ele>557.94805193144</ele>
        <time>2020-02-20T14:33:47Z</time>
      </trkpt>
      <trkpt lat="44.44632" lon="3.11094">
        <ele>559.47972257813</ele>
        <time>2020-02-20T14:33:55Z</time>
      </trkpt>
      <trkpt lat="44.44622" lon="3.11089">
        <ele>560.63636352012</ele>
        <time>2020-02-20T14:34:04Z</time>
      </trkpt>
      <trkpt lat="44.44612" lon="3.11089">
        <ele>561.44174251129</ele>
        <time>2020-02-20T14:34:12Z</time>
      </trkpt>
    </trkseg>
  </trk>
</gpx>